<?xml version="1.0" encoding="UTF-8" standalone="no" ?>
<gpx xmlns="http://www.topografix.com/GPX/1/1" xmlns:xsi="http://www.w3.org/2001/XMLSchema-instance" xsi:schemaLocation="http://www.topografix.com/GPX/1/1 http://www.topografix.com/GPX/1/1/gpx.xsd" version="1.1" creator="VisuGPX - https://www.visugpx.com">
  <metadata>
    <name>CHENOVE Marche du vendredi 10 aout 2012 </name>
    <desc><![CDATA[Marche libre avec Francesco]]></desc>
  </metadata>
  <trk>
    <name><![CDATA[CHENOVE Marche du vendredi 10 aout 2012 _1]]></name>
    <trkseg>
      <trkpt lat="47.29267" lon="5.00598">
        <ele>304.989</ele>
        <time>2012-08-10T07:31:17Z</time>
      </trkpt>
      <trkpt lat="47.29262" lon="5.00602">
        <ele>295.079</ele>
        <time>2012-08-10T07:31:28Z</time>
      </trkpt>
      <trkpt lat="47.29258" lon="5.00603">
        <ele>295.062</ele>
        <time>2012-08-10T07:31:39Z</time>
      </trkpt>
      <trkpt lat="47.29247" lon="5.00602">
        <ele>292.053</ele>
        <time>2012-08-10T07:31:50Z</time>
      </trkpt>
      <trkpt lat="47.29245" lon="5.006">
        <ele>290.443</ele>
        <time>2012-08-10T07:32:01Z</time>
      </trkpt>
      <trkpt lat="47.29245" lon="5.00602">
        <ele>291.012</ele>
        <time>2012-08-10T07:32:12Z</time>
      </trkpt>
      <trkpt lat="47.29245" lon="5.00602">
        <ele>291.012</ele>
        <time>2012-08-10T07:32:23Z</time>
      </trkpt>
      <trkpt lat="47.29245" lon="5.00602">
        <ele>291.012</ele>
        <time>2012-08-10T07:32:34Z</time>
      </trkpt>
      <trkpt lat="47.29245" lon="5.00602">
        <ele>290.962</ele>
        <time>2012-08-10T07:32:45Z</time>
      </trkpt>
      <trkpt lat="47.29245" lon="5.00602">
        <ele>290.962</ele>
        <time>2012-08-10T07:32:56Z</time>
      </trkpt>
      <trkpt lat="47.29245" lon="5.00602">
        <ele>290.962</ele>
        <time>2012-08-10T07:33:07Z</time>
      </trkpt>
      <trkpt lat="47.29242" lon="5.006">
        <ele>288.847</ele>
        <time>2012-08-10T07:33:18Z</time>
      </trkpt>
      <trkpt lat="47.29242" lon="5.006">
        <ele>288.847</ele>
        <time>2012-08-10T07:33:29Z</time>
      </trkpt>
      <trkpt lat="47.29242" lon="5.006">
        <ele>288.847</ele>
        <time>2012-08-10T07:33:40Z</time>
      </trkpt>
      <trkpt lat="47.29245" lon="5.00603">
        <ele>290.474</ele>
        <time>2012-08-10T07:33:51Z</time>
      </trkpt>
      <trkpt lat="47.29242" lon="5.00602">
        <ele>291.746</ele>
        <time>2012-08-10T07:34:02Z</time>
      </trkpt>
      <trkpt lat="47.2924" lon="5.00592">
        <ele>292.151</ele>
        <time>2012-08-10T07:34:13Z</time>
      </trkpt>
      <trkpt lat="47.29235" lon="5.00577">
        <ele>289.075</ele>
        <time>2012-08-10T07:34:24Z</time>
      </trkpt>
      <trkpt lat="47.2923" lon="5.00568">
        <ele>285.984</ele>
        <time>2012-08-10T07:34:35Z</time>
      </trkpt>
      <trkpt lat="47.29243" lon="5.00553">
        <ele>295.42</ele>
        <time>2012-08-10T07:34:46Z</time>
      </trkpt>
      <trkpt lat="47.29248" lon="5.00543">
        <ele>300.058</ele>
        <time>2012-08-10T07:34:57Z</time>
      </trkpt>
      <trkpt lat="47.29252" lon="5.00528">
        <ele>304.737</ele>
        <time>2012-08-10T07:35:08Z</time>
      </trkpt>
      <trkpt lat="47.29245" lon="5.00503">
        <ele>298.024</ele>
        <time>2012-08-10T07:35:19Z</time>
      </trkpt>
      <trkpt lat="47.29242" lon="5.0047">
        <ele>286.866</ele>
        <time>2012-08-10T07:35:30Z</time>
      </trkpt>
      <trkpt lat="47.29243" lon="5.00452">
        <ele>284.752</ele>
        <time>2012-08-10T07:35:41Z</time>
      </trkpt>
      <trkpt lat="47.29255" lon="5.0043">
        <ele>285.875</ele>
        <time>2012-08-10T07:35:52Z</time>
      </trkpt>
      <trkpt lat="47.29257" lon="5.00408">
        <ele>280.04</ele>
        <time>2012-08-10T07:36:03Z</time>
      </trkpt>
      <trkpt lat="47.29255" lon="5.004">
        <ele>267.973</ele>
        <time>2012-08-10T07:36:14Z</time>
      </trkpt>
      <trkpt lat="47.2925" lon="5.004">
        <ele>260.955</ele>
        <time>2012-08-10T07:36:25Z</time>
      </trkpt>
      <trkpt lat="47.29258" lon="5.00398">
        <ele>253.959</ele>
        <time>2012-08-10T07:36:36Z</time>
      </trkpt>
      <trkpt lat="47.2926" lon="5.0039">
        <ele>253.042</ele>
        <time>2012-08-10T07:36:47Z</time>
      </trkpt>
      <trkpt lat="47.29275" lon="5.00385">
        <ele>253.572</ele>
        <time>2012-08-10T07:36:58Z</time>
      </trkpt>
      <trkpt lat="47.29283" lon="5.00385">
        <ele>255.064</ele>
        <time>2012-08-10T07:37:09Z</time>
      </trkpt>
      <trkpt lat="47.293" lon="5.00383">
        <ele>256.189</ele>
        <time>2012-08-10T07:37:20Z</time>
      </trkpt>
      <trkpt lat="47.29318" lon="5.00372">
        <ele>254.48</ele>
        <time>2012-08-10T07:37:31Z</time>
      </trkpt>
      <trkpt lat="47.29335" lon="5.0037">
        <ele>256.578</ele>
        <time>2012-08-10T07:37:42Z</time>
      </trkpt>
      <trkpt lat="47.29352" lon="5.00367">
        <ele>255.48</ele>
        <time>2012-08-10T07:37:53Z</time>
      </trkpt>
      <trkpt lat="47.29352" lon="5.00377">
        <ele>253.825</ele>
        <time>2012-08-10T07:38:04Z</time>
      </trkpt>
      <trkpt lat="47.29372" lon="5.00367">
        <ele>257.813</ele>
        <time>2012-08-10T07:38:15Z</time>
      </trkpt>
      <trkpt lat="47.29383" lon="5.00367">
        <ele>264.689</ele>
        <time>2012-08-10T07:38:26Z</time>
      </trkpt>
      <trkpt lat="47.29393" lon="5.00373">
        <ele>268.015</ele>
        <time>2012-08-10T07:38:37Z</time>
      </trkpt>
      <trkpt lat="47.29398" lon="5.00375">
        <ele>265.345</ele>
        <time>2012-08-10T07:38:48Z</time>
      </trkpt>
      <trkpt lat="47.29415" lon="5.00365">
        <ele>259.122</ele>
        <time>2012-08-10T07:38:59Z</time>
      </trkpt>
      <trkpt lat="47.29447" lon="5.00337">
        <ele>268.969</ele>
        <time>2012-08-10T07:39:10Z</time>
      </trkpt>
      <trkpt lat="47.29468" lon="5.00318">
        <ele>276.976</ele>
        <time>2012-08-10T07:39:21Z</time>
      </trkpt>
      <trkpt lat="47.29475" lon="5.00302">
        <ele>273.564</ele>
        <time>2012-08-10T07:39:32Z</time>
      </trkpt>
      <trkpt lat="47.29478" lon="5.00287">
        <ele>270.354</ele>
        <time>2012-08-10T07:39:43Z</time>
      </trkpt>
      <trkpt lat="47.29482" lon="5.00267">
        <ele>272.499</ele>
        <time>2012-08-10T07:39:54Z</time>
      </trkpt>
      <trkpt lat="47.2948" lon="5.00258">
        <ele>273.314</ele>
        <time>2012-08-10T07:40:05Z</time>
      </trkpt>
      <trkpt lat="47.29488" lon="5.00243">
        <ele>277.129</ele>
        <time>2012-08-10T07:40:16Z</time>
      </trkpt>
      <trkpt lat="47.29513" lon="5.00217">
        <ele>274.807</ele>
        <time>2012-08-10T07:40:27Z</time>
      </trkpt>
      <trkpt lat="47.2954" lon="5.00203">
        <ele>285.646</ele>
        <time>2012-08-10T07:40:38Z</time>
      </trkpt>
      <trkpt lat="47.2955" lon="5.00195">
        <ele>285.327</ele>
        <time>2012-08-10T07:40:49Z</time>
      </trkpt>
      <trkpt lat="47.29558" lon="5.00178">
        <ele>288.15</ele>
        <time>2012-08-10T07:41:00Z</time>
      </trkpt>
      <trkpt lat="47.29568" lon="5.0016">
        <ele>288.241</ele>
        <time>2012-08-10T07:41:11Z</time>
      </trkpt>
      <trkpt lat="47.29577" lon="5.00142">
        <ele>286.016</ele>
        <time>2012-08-10T07:41:22Z</time>
      </trkpt>
      <trkpt lat="47.29585" lon="5.00125">
        <ele>285.465</ele>
        <time>2012-08-10T07:41:33Z</time>
      </trkpt>
      <trkpt lat="47.2959" lon="5.00107">
        <ele>287.006</ele>
        <time>2012-08-10T07:41:44Z</time>
      </trkpt>
      <trkpt lat="47.29597" lon="5.00083">
        <ele>286.597</ele>
        <time>2012-08-10T07:41:55Z</time>
      </trkpt>
      <trkpt lat="47.29603" lon="5.00065">
        <ele>287.961</ele>
        <time>2012-08-10T07:42:06Z</time>
      </trkpt>
      <trkpt lat="47.29615" lon="5.0006">
        <ele>287.444</ele>
        <time>2012-08-10T07:42:17Z</time>
      </trkpt>
      <trkpt lat="47.29632" lon="5.00062">
        <ele>285.563</ele>
        <time>2012-08-10T07:42:28Z</time>
      </trkpt>
      <trkpt lat="47.29645" lon="5.00063">
        <ele>284.45</ele>
        <time>2012-08-10T07:42:39Z</time>
      </trkpt>
      <trkpt lat="47.29658" lon="5.00067">
        <ele>284.065</ele>
        <time>2012-08-10T07:42:50Z</time>
      </trkpt>
      <trkpt lat="47.29673" lon="5.0007">
        <ele>283.383</ele>
        <time>2012-08-10T07:43:01Z</time>
      </trkpt>
      <trkpt lat="47.29683" lon="5.00073">
        <ele>283.18</ele>
        <time>2012-08-10T07:43:12Z</time>
      </trkpt>
      <trkpt lat="47.29702" lon="5.0008">
        <ele>282.395</ele>
        <time>2012-08-10T07:43:23Z</time>
      </trkpt>
      <trkpt lat="47.29715" lon="5.00082">
        <ele>281.563</ele>
        <time>2012-08-10T07:43:34Z</time>
      </trkpt>
      <trkpt lat="47.2973" lon="5.00083">
        <ele>280.819</ele>
        <time>2012-08-10T07:43:45Z</time>
      </trkpt>
      <trkpt lat="47.29747" lon="5.00087">
        <ele>281.462</ele>
        <time>2012-08-10T07:43:56Z</time>
      </trkpt>
      <trkpt lat="47.29762" lon="5.00093">
        <ele>281.679</ele>
        <time>2012-08-10T07:44:07Z</time>
      </trkpt>
      <trkpt lat="47.29775" lon="5.00098">
        <ele>281.229</ele>
        <time>2012-08-10T07:44:18Z</time>
      </trkpt>
      <trkpt lat="47.2979" lon="5.00102">
        <ele>282.145</ele>
        <time>2012-08-10T07:44:29Z</time>
      </trkpt>
      <trkpt lat="47.29802" lon="5.00103">
        <ele>283.325</ele>
        <time>2012-08-10T07:44:40Z</time>
      </trkpt>
      <trkpt lat="47.29815" lon="5.00107">
        <ele>284.279</ele>
        <time>2012-08-10T07:44:51Z</time>
      </trkpt>
      <trkpt lat="47.2983" lon="5.0011">
        <ele>283.848</ele>
        <time>2012-08-10T07:45:02Z</time>
      </trkpt>
      <trkpt lat="47.29842" lon="5.00115">
        <ele>284.494</ele>
        <time>2012-08-10T07:45:13Z</time>
      </trkpt>
      <trkpt lat="47.2986" lon="5.00122">
        <ele>285.129</ele>
        <time>2012-08-10T07:45:24Z</time>
      </trkpt>
      <trkpt lat="47.29875" lon="5.00123">
        <ele>285.163</ele>
        <time>2012-08-10T07:45:35Z</time>
      </trkpt>
      <trkpt lat="47.29888" lon="5.00123">
        <ele>286.179</ele>
        <time>2012-08-10T07:45:46Z</time>
      </trkpt>
      <trkpt lat="47.29902" lon="5.00123">
        <ele>287.893</ele>
        <time>2012-08-10T07:45:57Z</time>
      </trkpt>
      <trkpt lat="47.29915" lon="5.00122">
        <ele>289.621</ele>
        <time>2012-08-10T07:46:08Z</time>
      </trkpt>
      <trkpt lat="47.2993" lon="5.00118">
        <ele>290.501</ele>
        <time>2012-08-10T07:46:19Z</time>
      </trkpt>
      <trkpt lat="47.29947" lon="5.00117">
        <ele>289.138</ele>
        <time>2012-08-10T07:46:30Z</time>
      </trkpt>
      <trkpt lat="47.29962" lon="5.00118">
        <ele>289.219</ele>
        <time>2012-08-10T07:46:41Z</time>
      </trkpt>
      <trkpt lat="47.29978" lon="5.00118">
        <ele>289.689</ele>
        <time>2012-08-10T07:46:52Z</time>
      </trkpt>
      <trkpt lat="47.29995" lon="5.00122">
        <ele>290.418</ele>
        <time>2012-08-10T07:47:03Z</time>
      </trkpt>
      <trkpt lat="47.30007" lon="5.00123">
        <ele>290.869</ele>
        <time>2012-08-10T07:47:14Z</time>
      </trkpt>
      <trkpt lat="47.3001" lon="5.00123">
        <ele>292.279</ele>
        <time>2012-08-10T07:47:25Z</time>
      </trkpt>
      <trkpt lat="47.3002" lon="5.00125">
        <ele>293.753</ele>
        <time>2012-08-10T07:47:36Z</time>
      </trkpt>
      <trkpt lat="47.3003" lon="5.00135">
        <ele>295.07</ele>
        <time>2012-08-10T07:47:47Z</time>
      </trkpt>
      <trkpt lat="47.3004" lon="5.00142">
        <ele>295.699</ele>
        <time>2012-08-10T07:47:58Z</time>
      </trkpt>
      <trkpt lat="47.30045" lon="5.0014">
        <ele>297.044</ele>
        <time>2012-08-10T07:48:09Z</time>
      </trkpt>
      <trkpt lat="47.30047" lon="5.00135">
        <ele>300.382</ele>
        <time>2012-08-10T07:48:20Z</time>
      </trkpt>
      <trkpt lat="47.30052" lon="5.00128">
        <ele>302.603</ele>
        <time>2012-08-10T07:48:31Z</time>
      </trkpt>
      <trkpt lat="47.30053" lon="5.00122">
        <ele>305.337</ele>
        <time>2012-08-10T07:48:42Z</time>
      </trkpt>
      <trkpt lat="47.30058" lon="5.00113">
        <ele>307.223</ele>
        <time>2012-08-10T07:48:53Z</time>
      </trkpt>
      <trkpt lat="47.30067" lon="5.00105">
        <ele>309.626</ele>
        <time>2012-08-10T07:49:04Z</time>
      </trkpt>
      <trkpt lat="47.30072" lon="5.00095">
        <ele>312.667</ele>
        <time>2012-08-10T07:49:15Z</time>
      </trkpt>
      <trkpt lat="47.30077" lon="5.00083">
        <ele>315.249</ele>
        <time>2012-08-10T07:49:26Z</time>
      </trkpt>
      <trkpt lat="47.30078" lon="5.00068">
        <ele>318.058</ele>
        <time>2012-08-10T07:49:37Z</time>
      </trkpt>
      <trkpt lat="47.30082" lon="5.00057">
        <ele>321.055</ele>
        <time>2012-08-10T07:49:48Z</time>
      </trkpt>
      <trkpt lat="47.30085" lon="5.00038">
        <ele>322.466</ele>
        <time>2012-08-10T07:49:59Z</time>
      </trkpt>
      <trkpt lat="47.30088" lon="5.00022">
        <ele>324.592</ele>
        <time>2012-08-10T07:50:10Z</time>
      </trkpt>
      <trkpt lat="47.30092" lon="5.00002">
        <ele>325.609</ele>
        <time>2012-08-10T07:50:21Z</time>
      </trkpt>
      <trkpt lat="47.30097" lon="4.99982">
        <ele>328.928</ele>
        <time>2012-08-10T07:50:32Z</time>
      </trkpt>
      <trkpt lat="47.30098" lon="4.99965">
        <ele>331.272</ele>
        <time>2012-08-10T07:50:43Z</time>
      </trkpt>
      <trkpt lat="47.301" lon="4.99952">
        <ele>331.436</ele>
        <time>2012-08-10T07:50:54Z</time>
      </trkpt>
      <trkpt lat="47.30103" lon="4.99935">
        <ele>333.264</ele>
        <time>2012-08-10T07:51:05Z</time>
      </trkpt>
      <trkpt lat="47.30102" lon="4.99912">
        <ele>336.069</ele>
        <time>2012-08-10T07:51:16Z</time>
      </trkpt>
      <trkpt lat="47.301" lon="4.99887">
        <ele>337.951</ele>
        <time>2012-08-10T07:51:27Z</time>
      </trkpt>
      <trkpt lat="47.30098" lon="4.99865">
        <ele>339.583</ele>
        <time>2012-08-10T07:51:38Z</time>
      </trkpt>
      <trkpt lat="47.30095" lon="4.99842">
        <ele>340.171</ele>
        <time>2012-08-10T07:51:49Z</time>
      </trkpt>
      <trkpt lat="47.3009" lon="4.99822">
        <ele>342.537</ele>
        <time>2012-08-10T07:52:00Z</time>
      </trkpt>
      <trkpt lat="47.30088" lon="4.99807">
        <ele>343.436</ele>
        <time>2012-08-10T07:52:11Z</time>
      </trkpt>
      <trkpt lat="47.3009" lon="4.99787">
        <ele>343.615</ele>
        <time>2012-08-10T07:52:22Z</time>
      </trkpt>
      <trkpt lat="47.30087" lon="4.99768">
        <ele>345.061</ele>
        <time>2012-08-10T07:52:33Z</time>
      </trkpt>
      <trkpt lat="47.30085" lon="4.9975">
        <ele>347.976</ele>
        <time>2012-08-10T07:52:44Z</time>
      </trkpt>
      <trkpt lat="47.30087" lon="4.99723">
        <ele>348.142</ele>
        <time>2012-08-10T07:52:55Z</time>
      </trkpt>
      <trkpt lat="47.30085" lon="4.99708">
        <ele>348.192</ele>
        <time>2012-08-10T07:53:06Z</time>
      </trkpt>
      <trkpt lat="47.30085" lon="4.9969">
        <ele>351.526</ele>
        <time>2012-08-10T07:53:17Z</time>
      </trkpt>
      <trkpt lat="47.30087" lon="4.99667">
        <ele>354.621</ele>
        <time>2012-08-10T07:53:28Z</time>
      </trkpt>
      <trkpt lat="47.30087" lon="4.9965">
        <ele>358.022</ele>
        <time>2012-08-10T07:53:39Z</time>
      </trkpt>
      <trkpt lat="47.30087" lon="4.99637">
        <ele>362.466</ele>
        <time>2012-08-10T07:53:50Z</time>
      </trkpt>
      <trkpt lat="47.30088" lon="4.99618">
        <ele>365.886</ele>
        <time>2012-08-10T07:54:01Z</time>
      </trkpt>
      <trkpt lat="47.30092" lon="4.99605">
        <ele>367.015</ele>
        <time>2012-08-10T07:54:12Z</time>
      </trkpt>
      <trkpt lat="47.30093" lon="4.99583">
        <ele>365.973</ele>
        <time>2012-08-10T07:54:23Z</time>
      </trkpt>
      <trkpt lat="47.30092" lon="4.99562">
        <ele>367.353</ele>
        <time>2012-08-10T07:54:34Z</time>
      </trkpt>
      <trkpt lat="47.30092" lon="4.99543">
        <ele>368.459</ele>
        <time>2012-08-10T07:54:45Z</time>
      </trkpt>
      <trkpt lat="47.30092" lon="4.99528">
        <ele>369.843</ele>
        <time>2012-08-10T07:54:56Z</time>
      </trkpt>
      <trkpt lat="47.30093" lon="4.99508">
        <ele>372.201</ele>
        <time>2012-08-10T07:55:07Z</time>
      </trkpt>
      <trkpt lat="47.30092" lon="4.99485">
        <ele>374.331</ele>
        <time>2012-08-10T07:55:18Z</time>
      </trkpt>
      <trkpt lat="47.30092" lon="4.9947">
        <ele>376.862</ele>
        <time>2012-08-10T07:55:29Z</time>
      </trkpt>
      <trkpt lat="47.30092" lon="4.99452">
        <ele>377.964</ele>
        <time>2012-08-10T07:55:40Z</time>
      </trkpt>
      <trkpt lat="47.30092" lon="4.99432">
        <ele>380.15</ele>
        <time>2012-08-10T07:55:51Z</time>
      </trkpt>
      <trkpt lat="47.3009" lon="4.99412">
        <ele>383.45</ele>
        <time>2012-08-10T07:56:02Z</time>
      </trkpt>
      <trkpt lat="47.30087" lon="4.99395">
        <ele>384.929</ele>
        <time>2012-08-10T07:56:13Z</time>
      </trkpt>
      <trkpt lat="47.30085" lon="4.99383">
        <ele>384.119</ele>
        <time>2012-08-10T07:56:24Z</time>
      </trkpt>
      <trkpt lat="47.30083" lon="4.99375">
        <ele>354</ele>
        <time>2012-08-10T07:56:35Z</time>
      </trkpt>
      <trkpt lat="47.30083" lon="4.99372">
        <ele>385.955</ele>
        <time>2012-08-10T07:56:46Z</time>
      </trkpt>
      <trkpt lat="47.30083" lon="4.99372">
        <ele>385.955</ele>
        <time>2012-08-10T07:56:57Z</time>
      </trkpt>
      <trkpt lat="47.30083" lon="4.9937">
        <ele>384.875</ele>
        <time>2012-08-10T07:57:08Z</time>
      </trkpt>
      <trkpt lat="47.30083" lon="4.99368">
        <ele>384.666</ele>
        <time>2012-08-10T07:57:19Z</time>
      </trkpt>
      <trkpt lat="47.30083" lon="4.99368">
        <ele>384.666</ele>
        <time>2012-08-10T07:57:30Z</time>
      </trkpt>
      <trkpt lat="47.30083" lon="4.99368">
        <ele>384.666</ele>
        <time>2012-08-10T07:57:41Z</time>
      </trkpt>
      <trkpt lat="47.30083" lon="4.99368">
        <ele>384.666</ele>
        <time>2012-08-10T07:57:52Z</time>
      </trkpt>
      <trkpt lat="47.30083" lon="4.99368">
        <ele>384.666</ele>
        <time>2012-08-10T07:58:03Z</time>
      </trkpt>
      <trkpt lat="47.30083" lon="4.99368">
        <ele>384.751</ele>
        <time>2012-08-10T07:58:14Z</time>
      </trkpt>
      <trkpt lat="47.30083" lon="4.99368">
        <ele>384.751</ele>
        <time>2012-08-10T07:58:25Z</time>
      </trkpt>
      <trkpt lat="47.30083" lon="4.99368">
        <ele>384.751</ele>
        <time>2012-08-10T07:58:36Z</time>
      </trkpt>
      <trkpt lat="47.30083" lon="4.99368">
        <ele>384.751</ele>
        <time>2012-08-10T07:58:47Z</time>
      </trkpt>
      <trkpt lat="47.30083" lon="4.99368">
        <ele>384.751</ele>
        <time>2012-08-10T07:58:58Z</time>
      </trkpt>
      <trkpt lat="47.30082" lon="4.99367">
        <ele>385.141</ele>
        <time>2012-08-10T07:59:09Z</time>
      </trkpt>
      <trkpt lat="47.30082" lon="4.99367">
        <ele>385.141</ele>
        <time>2012-08-10T07:59:20Z</time>
      </trkpt>
      <trkpt lat="47.30082" lon="4.99367">
        <ele>385.141</ele>
        <time>2012-08-10T07:59:31Z</time>
      </trkpt>
      <trkpt lat="47.30082" lon="4.99367">
        <ele>384.878</ele>
        <time>2012-08-10T07:59:42Z</time>
      </trkpt>
      <trkpt lat="47.30087" lon="4.99358">
        <ele>384.458</ele>
        <time>2012-08-10T07:59:53Z</time>
      </trkpt>
      <trkpt lat="47.30092" lon="4.99347">
        <ele>385.079</ele>
        <time>2012-08-10T08:00:04Z</time>
      </trkpt>
      <trkpt lat="47.30097" lon="4.99333">
        <ele>385.559</ele>
        <time>2012-08-10T08:00:15Z</time>
      </trkpt>
      <trkpt lat="47.30102" lon="4.99315">
        <ele>387.203</ele>
        <time>2012-08-10T08:00:26Z</time>
      </trkpt>
      <trkpt lat="47.30103" lon="4.99293">
        <ele>388.367</ele>
        <time>2012-08-10T08:00:37Z</time>
      </trkpt>
      <trkpt lat="47.301" lon="4.99267">
        <ele>389.893</ele>
        <time>2012-08-10T08:00:48Z</time>
      </trkpt>
      <trkpt lat="47.30103" lon="4.99243">
        <ele>391.22</ele>
        <time>2012-08-10T08:00:59Z</time>
      </trkpt>
      <trkpt lat="47.30113" lon="4.9923">
        <ele>388.975</ele>
        <time>2012-08-10T08:01:10Z</time>
      </trkpt>
      <trkpt lat="47.30115" lon="4.9921">
        <ele>389.025</ele>
        <time>2012-08-10T08:01:21Z</time>
      </trkpt>
      <trkpt lat="47.30107" lon="4.99197">
        <ele>392.212</ele>
        <time>2012-08-10T08:01:32Z</time>
      </trkpt>
      <trkpt lat="47.30098" lon="4.99188">
        <ele>394.202</ele>
        <time>2012-08-10T08:01:43Z</time>
      </trkpt>
      <trkpt lat="47.30088" lon="4.99173">
        <ele>397.156</ele>
        <time>2012-08-10T08:01:54Z</time>
      </trkpt>
      <trkpt lat="47.3008" lon="4.99157">
        <ele>397.593</ele>
        <time>2012-08-10T08:02:05Z</time>
      </trkpt>
      <trkpt lat="47.30073" lon="4.99148">
        <ele>399.33</ele>
        <time>2012-08-10T08:02:16Z</time>
      </trkpt>
      <trkpt lat="47.30075" lon="4.99147">
        <ele>398.58</ele>
        <time>2012-08-10T08:02:27Z</time>
      </trkpt>
      <trkpt lat="47.30082" lon="4.99142">
        <ele>395.853</ele>
        <time>2012-08-10T08:02:38Z</time>
      </trkpt>
      <trkpt lat="47.30093" lon="4.99142">
        <ele>392.851</ele>
        <time>2012-08-10T08:02:49Z</time>
      </trkpt>
      <trkpt lat="47.301" lon="4.99147">
        <ele>389.839</ele>
        <time>2012-08-10T08:03:00Z</time>
      </trkpt>
      <trkpt lat="47.30112" lon="4.99147">
        <ele>390.192</ele>
        <time>2012-08-10T08:03:11Z</time>
      </trkpt>
      <trkpt lat="47.30123" lon="4.99135">
        <ele>390.842</ele>
        <time>2012-08-10T08:03:22Z</time>
      </trkpt>
      <trkpt lat="47.30137" lon="4.99128">
        <ele>390.287</ele>
        <time>2012-08-10T08:03:33Z</time>
      </trkpt>
      <trkpt lat="47.30145" lon="4.99122">
        <ele>387.563</ele>
        <time>2012-08-10T08:03:44Z</time>
      </trkpt>
      <trkpt lat="47.3015" lon="4.99107">
        <ele>389.087</ele>
        <time>2012-08-10T08:03:55Z</time>
      </trkpt>
      <trkpt lat="47.30153" lon="4.99085">
        <ele>387.231</ele>
        <time>2012-08-10T08:04:06Z</time>
      </trkpt>
      <trkpt lat="47.3016" lon="4.99067">
        <ele>385.383</ele>
        <time>2012-08-10T08:04:17Z</time>
      </trkpt>
      <trkpt lat="47.30167" lon="4.99048">
        <ele>384.339</ele>
        <time>2012-08-10T08:04:28Z</time>
      </trkpt>
      <trkpt lat="47.30177" lon="4.99033">
        <ele>382.273</ele>
        <time>2012-08-10T08:04:39Z</time>
      </trkpt>
      <trkpt lat="47.3019" lon="4.99018">
        <ele>379.866</ele>
        <time>2012-08-10T08:04:50Z</time>
      </trkpt>
      <trkpt lat="47.30205" lon="4.99003">
        <ele>377.447</ele>
        <time>2012-08-10T08:05:01Z</time>
      </trkpt>
      <trkpt lat="47.30213" lon="4.98985">
        <ele>376.761</ele>
        <time>2012-08-10T08:05:12Z</time>
      </trkpt>
      <trkpt lat="47.3022" lon="4.9897">
        <ele>375.989</ele>
        <time>2012-08-10T08:05:23Z</time>
      </trkpt>
      <trkpt lat="47.30232" lon="4.98953">
        <ele>373.746</ele>
        <time>2012-08-10T08:05:34Z</time>
      </trkpt>
      <trkpt lat="47.30243" lon="4.98942">
        <ele>373.887</ele>
        <time>2012-08-10T08:05:45Z</time>
      </trkpt>
      <trkpt lat="47.30253" lon="4.98922">
        <ele>371.732</ele>
        <time>2012-08-10T08:05:56Z</time>
      </trkpt>
      <trkpt lat="47.30258" lon="4.98902">
        <ele>371.456</ele>
        <time>2012-08-10T08:06:07Z</time>
      </trkpt>
      <trkpt lat="47.30262" lon="4.98882">
        <ele>370.595</ele>
        <time>2012-08-10T08:06:18Z</time>
      </trkpt>
      <trkpt lat="47.30268" lon="4.98863">
        <ele>369.379</ele>
        <time>2012-08-10T08:06:29Z</time>
      </trkpt>
      <trkpt lat="47.30273" lon="4.98855">
        <ele>369.228</ele>
        <time>2012-08-10T08:06:40Z</time>
      </trkpt>
      <trkpt lat="47.30275" lon="4.98848">
        <ele>368.907</ele>
        <time>2012-08-10T08:06:51Z</time>
      </trkpt>
      <trkpt lat="47.30278" lon="4.98838">
        <ele>369.232</ele>
        <time>2012-08-10T08:07:02Z</time>
      </trkpt>
      <trkpt lat="47.30278" lon="4.9883">
        <ele>368.415</ele>
        <time>2012-08-10T08:07:13Z</time>
      </trkpt>
      <trkpt lat="47.30287" lon="4.98837">
        <ele>367.737</ele>
        <time>2012-08-10T08:07:24Z</time>
      </trkpt>
      <trkpt lat="47.30295" lon="4.98835">
        <ele>368.559</ele>
        <time>2012-08-10T08:07:35Z</time>
      </trkpt>
      <trkpt lat="47.30297" lon="4.98832">
        <ele>369.734</ele>
        <time>2012-08-10T08:07:46Z</time>
      </trkpt>
      <trkpt lat="47.30298" lon="4.98832">
        <ele>369.506</ele>
        <time>2012-08-10T08:07:57Z</time>
      </trkpt>
      <trkpt lat="47.30308" lon="4.98827">
        <ele>371.5</ele>
        <time>2012-08-10T08:08:08Z</time>
      </trkpt>
      <trkpt lat="47.30315" lon="4.9882">
        <ele>370.728</ele>
        <time>2012-08-10T08:08:19Z</time>
      </trkpt>
      <trkpt lat="47.30325" lon="4.98815">
        <ele>370.466</ele>
        <time>2012-08-10T08:08:30Z</time>
      </trkpt>
      <trkpt lat="47.30333" lon="4.98803">
        <ele>370.884</ele>
        <time>2012-08-10T08:08:41Z</time>
      </trkpt>
      <trkpt lat="47.3035" lon="4.98797">
        <ele>372.578</ele>
        <time>2012-08-10T08:08:52Z</time>
      </trkpt>
      <trkpt lat="47.30367" lon="4.98788">
        <ele>373.801</ele>
        <time>2012-08-10T08:09:03Z</time>
      </trkpt>
      <trkpt lat="47.30378" lon="4.98773">
        <ele>374.861</ele>
        <time>2012-08-10T08:09:14Z</time>
      </trkpt>
      <trkpt lat="47.30393" lon="4.9876">
        <ele>375.546</ele>
        <time>2012-08-10T08:09:25Z</time>
      </trkpt>
      <trkpt lat="47.30407" lon="4.98748">
        <ele>377.294</ele>
        <time>2012-08-10T08:09:36Z</time>
      </trkpt>
      <trkpt lat="47.30415" lon="4.98743">
        <ele>376.327</ele>
        <time>2012-08-10T08:09:47Z</time>
      </trkpt>
      <trkpt lat="47.3043" lon="4.98733">
        <ele>372.569</ele>
        <time>2012-08-10T08:09:58Z</time>
      </trkpt>
      <trkpt lat="47.30443" lon="4.98722">
        <ele>370.439</ele>
        <time>2012-08-10T08:10:09Z</time>
      </trkpt>
      <trkpt lat="47.30448" lon="4.98718">
        <ele>369.093</ele>
        <time>2012-08-10T08:10:20Z</time>
      </trkpt>
      <trkpt lat="47.30455" lon="4.98703">
        <ele>367.835</ele>
        <time>2012-08-10T08:10:31Z</time>
      </trkpt>
      <trkpt lat="47.30465" lon="4.98688">
        <ele>365.25</ele>
        <time>2012-08-10T08:10:42Z</time>
      </trkpt>
      <trkpt lat="47.30467" lon="4.98665">
        <ele>362.916</ele>
        <time>2012-08-10T08:10:53Z</time>
      </trkpt>
      <trkpt lat="47.30465" lon="4.98638">
        <ele>362.365</ele>
        <time>2012-08-10T08:11:04Z</time>
      </trkpt>
      <trkpt lat="47.3046" lon="4.98615">
        <ele>361.625</ele>
        <time>2012-08-10T08:11:15Z</time>
      </trkpt>
      <trkpt lat="47.30455" lon="4.98593">
        <ele>359.793</ele>
        <time>2012-08-10T08:11:26Z</time>
      </trkpt>
      <trkpt lat="47.30448" lon="4.98575">
        <ele>360.416</ele>
        <time>2012-08-10T08:11:37Z</time>
      </trkpt>
      <trkpt lat="47.30445" lon="4.98555">
        <ele>360.589</ele>
        <time>2012-08-10T08:11:48Z</time>
      </trkpt>
      <trkpt lat="47.30447" lon="4.98538">
        <ele>361.557</ele>
        <time>2012-08-10T08:11:59Z</time>
      </trkpt>
      <trkpt lat="47.30443" lon="4.9852">
        <ele>360.618</ele>
        <time>2012-08-10T08:12:10Z</time>
      </trkpt>
      <trkpt lat="47.3044" lon="4.98503">
        <ele>362.379</ele>
        <time>2012-08-10T08:12:21Z</time>
      </trkpt>
      <trkpt lat="47.30435" lon="4.98485">
        <ele>362.103</ele>
        <time>2012-08-10T08:12:32Z</time>
      </trkpt>
      <trkpt lat="47.30433" lon="4.98472">
        <ele>363.501</ele>
        <time>2012-08-10T08:12:43Z</time>
      </trkpt>
      <trkpt lat="47.30427" lon="4.98448">
        <ele>361.907</ele>
        <time>2012-08-10T08:12:54Z</time>
      </trkpt>
      <trkpt lat="47.30425" lon="4.98428">
        <ele>356.594</ele>
        <time>2012-08-10T08:13:05Z</time>
      </trkpt>
      <trkpt lat="47.30427" lon="4.98413">
        <ele>357.309</ele>
        <time>2012-08-10T08:13:16Z</time>
      </trkpt>
      <trkpt lat="47.30423" lon="4.98395">
        <ele>359.143</ele>
        <time>2012-08-10T08:13:27Z</time>
      </trkpt>
      <trkpt lat="47.30423" lon="4.9838">
        <ele>363.797</ele>
        <time>2012-08-10T08:13:38Z</time>
      </trkpt>
      <trkpt lat="47.3042" lon="4.9836">
        <ele>365.302</ele>
        <time>2012-08-10T08:13:49Z</time>
      </trkpt>
      <trkpt lat="47.30425" lon="4.98348">
        <ele>366.986</ele>
        <time>2012-08-10T08:14:00Z</time>
      </trkpt>
      <trkpt lat="47.3043" lon="4.98345">
        <ele>368.6</ele>
        <time>2012-08-10T08:14:11Z</time>
      </trkpt>
      <trkpt lat="47.3043" lon="4.9834">
        <ele>368.456</ele>
        <time>2012-08-10T08:14:22Z</time>
      </trkpt>
      <trkpt lat="47.30438" lon="4.9834">
        <ele>368.078</ele>
        <time>2012-08-10T08:14:33Z</time>
      </trkpt>
      <trkpt lat="47.30448" lon="4.9834">
        <ele>367.188</ele>
        <time>2012-08-10T08:14:44Z</time>
      </trkpt>
      <trkpt lat="47.30457" lon="4.98343">
        <ele>367.129</ele>
        <time>2012-08-10T08:14:55Z</time>
      </trkpt>
      <trkpt lat="47.30452" lon="4.98352">
        <ele>366.471</ele>
        <time>2012-08-10T08:15:06Z</time>
      </trkpt>
      <trkpt lat="47.30457" lon="4.98365">
        <ele>367.952</ele>
        <time>2012-08-10T08:15:17Z</time>
      </trkpt>
      <trkpt lat="47.30465" lon="4.98382">
        <ele>366.709</ele>
        <time>2012-08-10T08:15:28Z</time>
      </trkpt>
      <trkpt lat="47.30485" lon="4.98403">
        <ele>361.62</ele>
        <time>2012-08-10T08:15:39Z</time>
      </trkpt>
      <trkpt lat="47.30493" lon="4.98422">
        <ele>360.253</ele>
        <time>2012-08-10T08:15:50Z</time>
      </trkpt>
      <trkpt lat="47.305" lon="4.98438">
        <ele>358.072</ele>
        <time>2012-08-10T08:16:01Z</time>
      </trkpt>
      <trkpt lat="47.3051" lon="4.9846">
        <ele>355.078</ele>
        <time>2012-08-10T08:16:12Z</time>
      </trkpt>
      <trkpt lat="47.30523" lon="4.9848">
        <ele>352.024</ele>
        <time>2012-08-10T08:16:23Z</time>
      </trkpt>
      <trkpt lat="47.30538" lon="4.98492">
        <ele>350.838</ele>
        <time>2012-08-10T08:16:34Z</time>
      </trkpt>
      <trkpt lat="47.3055" lon="4.98495">
        <ele>350.497</ele>
        <time>2012-08-10T08:16:45Z</time>
      </trkpt>
      <trkpt lat="47.30565" lon="4.98502">
        <ele>349.513</ele>
        <time>2012-08-10T08:16:56Z</time>
      </trkpt>
      <trkpt lat="47.30582" lon="4.98502">
        <ele>349.451</ele>
        <time>2012-08-10T08:17:07Z</time>
      </trkpt>
      <trkpt lat="47.30592" lon="4.98492">
        <ele>350.725</ele>
        <time>2012-08-10T08:17:18Z</time>
      </trkpt>
      <trkpt lat="47.30598" lon="4.98477">
        <ele>352.194</ele>
        <time>2012-08-10T08:17:29Z</time>
      </trkpt>
      <trkpt lat="47.30605" lon="4.98468">
        <ele>354.818</ele>
        <time>2012-08-10T08:17:40Z</time>
      </trkpt>
      <trkpt lat="47.30612" lon="4.98457">
        <ele>358.209</ele>
        <time>2012-08-10T08:17:51Z</time>
      </trkpt>
      <trkpt lat="47.30617" lon="4.9844">
        <ele>361.058</ele>
        <time>2012-08-10T08:18:02Z</time>
      </trkpt>
      <trkpt lat="47.30623" lon="4.98427">
        <ele>363.937</ele>
        <time>2012-08-10T08:18:13Z</time>
      </trkpt>
      <trkpt lat="47.30625" lon="4.98412">
        <ele>368.938</ele>
        <time>2012-08-10T08:18:24Z</time>
      </trkpt>
      <trkpt lat="47.30628" lon="4.98397">
        <ele>373.735</ele>
        <time>2012-08-10T08:18:35Z</time>
      </trkpt>
      <trkpt lat="47.30627" lon="4.9838">
        <ele>374.278</ele>
        <time>2012-08-10T08:18:46Z</time>
      </trkpt>
      <trkpt lat="47.30623" lon="4.98362">
        <ele>376.597</ele>
        <time>2012-08-10T08:18:57Z</time>
      </trkpt>
      <trkpt lat="47.30622" lon="4.98345">
        <ele>377.033</ele>
        <time>2012-08-10T08:19:08Z</time>
      </trkpt>
      <trkpt lat="47.30612" lon="4.98333">
        <ele>372.917</ele>
        <time>2012-08-10T08:19:19Z</time>
      </trkpt>
      <trkpt lat="47.30612" lon="4.98333">
        <ele>372.917</ele>
        <time>2012-08-10T08:19:30Z</time>
      </trkpt>
      <trkpt lat="47.30612" lon="4.98333">
        <ele>372.917</ele>
        <time>2012-08-10T08:19:41Z</time>
      </trkpt>
      <trkpt lat="47.30612" lon="4.98333">
        <ele>372.917</ele>
        <time>2012-08-10T08:19:52Z</time>
      </trkpt>
      <trkpt lat="47.30612" lon="4.98333">
        <ele>372.917</ele>
        <time>2012-08-10T08:20:03Z</time>
      </trkpt>
      <trkpt lat="47.30612" lon="4.98333">
        <ele>372.917</ele>
        <time>2012-08-10T08:20:14Z</time>
      </trkpt>
      <trkpt lat="47.30613" lon="4.98335">
        <ele>372.579</ele>
        <time>2012-08-10T08:20:25Z</time>
      </trkpt>
      <trkpt lat="47.30618" lon="4.98333">
        <ele>370.866</ele>
        <time>2012-08-10T08:20:36Z</time>
      </trkpt>
      <trkpt lat="47.30618" lon="4.98332">
        <ele>370.837</ele>
        <time>2012-08-10T08:20:47Z</time>
      </trkpt>
      <trkpt lat="47.3062" lon="4.9833">
        <ele>369.652</ele>
        <time>2012-08-10T08:20:58Z</time>
      </trkpt>
      <trkpt lat="47.30623" lon="4.98317">
        <ele>368.772</ele>
        <time>2012-08-10T08:21:09Z</time>
      </trkpt>
      <trkpt lat="47.30623" lon="4.98293">
        <ele>367.732</ele>
        <time>2012-08-10T08:21:20Z</time>
      </trkpt>
      <trkpt lat="47.30617" lon="4.98273">
        <ele>366.238</ele>
        <time>2012-08-10T08:21:31Z</time>
      </trkpt>
      <trkpt lat="47.30617" lon="4.98252">
        <ele>366.014</ele>
        <time>2012-08-10T08:21:42Z</time>
      </trkpt>
      <trkpt lat="47.30625" lon="4.98235">
        <ele>366.062</ele>
        <time>2012-08-10T08:21:53Z</time>
      </trkpt>
      <trkpt lat="47.30633" lon="4.9822">
        <ele>366.291</ele>
        <time>2012-08-10T08:22:04Z</time>
      </trkpt>
      <trkpt lat="47.30642" lon="4.98205">
        <ele>366.451</ele>
        <time>2012-08-10T08:22:15Z</time>
      </trkpt>
      <trkpt lat="47.30652" lon="4.98187">
        <ele>367.371</ele>
        <time>2012-08-10T08:22:26Z</time>
      </trkpt>
      <trkpt lat="47.3066" lon="4.98172">
        <ele>367.836</ele>
        <time>2012-08-10T08:22:37Z</time>
      </trkpt>
      <trkpt lat="47.3067" lon="4.98155">
        <ele>368.012</ele>
        <time>2012-08-10T08:22:48Z</time>
      </trkpt>
      <trkpt lat="47.3068" lon="4.98138">
        <ele>367.898</ele>
        <time>2012-08-10T08:22:59Z</time>
      </trkpt>
      <trkpt lat="47.3069" lon="4.98122">
        <ele>368.309</ele>
        <time>2012-08-10T08:23:10Z</time>
      </trkpt>
      <trkpt lat="47.307" lon="4.98103">
        <ele>368.962</ele>
        <time>2012-08-10T08:23:21Z</time>
      </trkpt>
      <trkpt lat="47.30708" lon="4.98087">
        <ele>369.156</ele>
        <time>2012-08-10T08:23:32Z</time>
      </trkpt>
      <trkpt lat="47.30718" lon="4.9807">
        <ele>369.47</ele>
        <time>2012-08-10T08:23:43Z</time>
      </trkpt>
      <trkpt lat="47.30728" lon="4.98053">
        <ele>369.379</ele>
        <time>2012-08-10T08:23:54Z</time>
      </trkpt>
      <trkpt lat="47.30738" lon="4.98035">
        <ele>369.833</ele>
        <time>2012-08-10T08:24:05Z</time>
      </trkpt>
      <trkpt lat="47.30748" lon="4.9802">
        <ele>370.912</ele>
        <time>2012-08-10T08:24:16Z</time>
      </trkpt>
      <trkpt lat="47.3076" lon="4.98002">
        <ele>369.794</ele>
        <time>2012-08-10T08:24:27Z</time>
      </trkpt>
      <trkpt lat="47.3077" lon="4.97983">
        <ele>370.19</ele>
        <time>2012-08-10T08:24:38Z</time>
      </trkpt>
      <trkpt lat="47.30778" lon="4.97967">
        <ele>370.288</ele>
        <time>2012-08-10T08:24:49Z</time>
      </trkpt>
      <trkpt lat="47.30788" lon="4.9795">
        <ele>370.442</ele>
        <time>2012-08-10T08:25:00Z</time>
      </trkpt>
      <trkpt lat="47.30797" lon="4.97935">
        <ele>370.218</ele>
        <time>2012-08-10T08:25:11Z</time>
      </trkpt>
      <trkpt lat="47.30805" lon="4.97917">
        <ele>370.391</ele>
        <time>2012-08-10T08:25:22Z</time>
      </trkpt>
      <trkpt lat="47.30798" lon="4.979">
        <ele>371.095</ele>
        <time>2012-08-10T08:25:33Z</time>
      </trkpt>
      <trkpt lat="47.30788" lon="4.97885">
        <ele>372.346</ele>
        <time>2012-08-10T08:25:44Z</time>
      </trkpt>
      <trkpt lat="47.30778" lon="4.97872">
        <ele>373.194</ele>
        <time>2012-08-10T08:25:55Z</time>
      </trkpt>
      <trkpt lat="47.3077" lon="4.9786">
        <ele>374.508</ele>
        <time>2012-08-10T08:26:06Z</time>
      </trkpt>
      <trkpt lat="47.30757" lon="4.97842">
        <ele>374.284</ele>
        <time>2012-08-10T08:26:17Z</time>
      </trkpt>
      <trkpt lat="47.30743" lon="4.97823">
        <ele>373.514</ele>
        <time>2012-08-10T08:26:28Z</time>
      </trkpt>
      <trkpt lat="47.30737" lon="4.97803">
        <ele>374.481</ele>
        <time>2012-08-10T08:26:39Z</time>
      </trkpt>
      <trkpt lat="47.30735" lon="4.9778">
        <ele>373.616</ele>
        <time>2012-08-10T08:26:50Z</time>
      </trkpt>
      <trkpt lat="47.3074" lon="4.97758">
        <ele>372.397</ele>
        <time>2012-08-10T08:27:01Z</time>
      </trkpt>
      <trkpt lat="47.30745" lon="4.97738">
        <ele>371.495</ele>
        <time>2012-08-10T08:27:12Z</time>
      </trkpt>
      <trkpt lat="47.30752" lon="4.97715">
        <ele>369.456</ele>
        <time>2012-08-10T08:27:23Z</time>
      </trkpt>
      <trkpt lat="47.30757" lon="4.97695">
        <ele>369.539</ele>
        <time>2012-08-10T08:27:34Z</time>
      </trkpt>
      <trkpt lat="47.30763" lon="4.97673">
        <ele>369.881</ele>
        <time>2012-08-10T08:27:45Z</time>
      </trkpt>
      <trkpt lat="47.3077" lon="4.97653">
        <ele>368.62</ele>
        <time>2012-08-10T08:27:56Z</time>
      </trkpt>
      <trkpt lat="47.30777" lon="4.97633">
        <ele>367.642</ele>
        <time>2012-08-10T08:28:07Z</time>
      </trkpt>
      <trkpt lat="47.30782" lon="4.97612">
        <ele>366.726</ele>
        <time>2012-08-10T08:28:18Z</time>
      </trkpt>
      <trkpt lat="47.30787" lon="4.9759">
        <ele>366.254</ele>
        <time>2012-08-10T08:28:29Z</time>
      </trkpt>
      <trkpt lat="47.30792" lon="4.9757">
        <ele>366.632</ele>
        <time>2012-08-10T08:28:40Z</time>
      </trkpt>
      <trkpt lat="47.30797" lon="4.97552">
        <ele>366.864</ele>
        <time>2012-08-10T08:28:51Z</time>
      </trkpt>
      <trkpt lat="47.30802" lon="4.97532">
        <ele>366.252</ele>
        <time>2012-08-10T08:29:02Z</time>
      </trkpt>
      <trkpt lat="47.30807" lon="4.97512">
        <ele>366.733</ele>
        <time>2012-08-10T08:29:13Z</time>
      </trkpt>
      <trkpt lat="47.30813" lon="4.97492">
        <ele>366.087</ele>
        <time>2012-08-10T08:29:24Z</time>
      </trkpt>
      <trkpt lat="47.30818" lon="4.97472">
        <ele>365.056</ele>
        <time>2012-08-10T08:29:35Z</time>
      </trkpt>
      <trkpt lat="47.30823" lon="4.97453">
        <ele>363.074</ele>
        <time>2012-08-10T08:29:46Z</time>
      </trkpt>
      <trkpt lat="47.30828" lon="4.97438">
        <ele>362.491</ele>
        <time>2012-08-10T08:29:57Z</time>
      </trkpt>
      <trkpt lat="47.30837" lon="4.97425">
        <ele>361.888</ele>
        <time>2012-08-10T08:30:08Z</time>
      </trkpt>
      <trkpt lat="47.30842" lon="4.97408">
        <ele>361.366</ele>
        <time>2012-08-10T08:30:19Z</time>
      </trkpt>
      <trkpt lat="47.30845" lon="4.97392">
        <ele>362.466</ele>
        <time>2012-08-10T08:30:30Z</time>
      </trkpt>
      <trkpt lat="47.30855" lon="4.97372">
        <ele>364.066</ele>
        <time>2012-08-10T08:30:41Z</time>
      </trkpt>
      <trkpt lat="47.30862" lon="4.97352">
        <ele>365.743</ele>
        <time>2012-08-10T08:30:52Z</time>
      </trkpt>
      <trkpt lat="47.30865" lon="4.97332">
        <ele>367.823</ele>
        <time>2012-08-10T08:31:03Z</time>
      </trkpt>
      <trkpt lat="47.30865" lon="4.97313">
        <ele>370.035</ele>
        <time>2012-08-10T08:31:14Z</time>
      </trkpt>
      <trkpt lat="47.30867" lon="4.97295">
        <ele>371.671</ele>
        <time>2012-08-10T08:31:25Z</time>
      </trkpt>
      <trkpt lat="47.30868" lon="4.97275">
        <ele>373.895</ele>
        <time>2012-08-10T08:31:36Z</time>
      </trkpt>
      <trkpt lat="47.30872" lon="4.97253">
        <ele>374.746</ele>
        <time>2012-08-10T08:31:47Z</time>
      </trkpt>
      <trkpt lat="47.30875" lon="4.9723">
        <ele>375.257</ele>
        <time>2012-08-10T08:31:58Z</time>
      </trkpt>
      <trkpt lat="47.3088" lon="4.97215">
        <ele>378.097</ele>
        <time>2012-08-10T08:32:09Z</time>
      </trkpt>
      <trkpt lat="47.30887" lon="4.97198">
        <ele>379.33</ele>
        <time>2012-08-10T08:32:20Z</time>
      </trkpt>
      <trkpt lat="47.30895" lon="4.97182">
        <ele>380.638</ele>
        <time>2012-08-10T08:32:31Z</time>
      </trkpt>
      <trkpt lat="47.30905" lon="4.97158">
        <ele>378.065</ele>
        <time>2012-08-10T08:32:42Z</time>
      </trkpt>
      <trkpt lat="47.30913" lon="4.97138">
        <ele>376.233</ele>
        <time>2012-08-10T08:32:53Z</time>
      </trkpt>
      <trkpt lat="47.30927" lon="4.97127">
        <ele>379.128</ele>
        <time>2012-08-10T08:33:04Z</time>
      </trkpt>
      <trkpt lat="47.3094" lon="4.97112">
        <ele>380.33</ele>
        <time>2012-08-10T08:33:15Z</time>
      </trkpt>
      <trkpt lat="47.30953" lon="4.97097">
        <ele>383.338</ele>
        <time>2012-08-10T08:33:26Z</time>
      </trkpt>
      <trkpt lat="47.30967" lon="4.97082">
        <ele>385.804</ele>
        <time>2012-08-10T08:33:37Z</time>
      </trkpt>
      <trkpt lat="47.30975" lon="4.97065">
        <ele>390.514</ele>
        <time>2012-08-10T08:33:48Z</time>
      </trkpt>
      <trkpt lat="47.30985" lon="4.97047">
        <ele>391.342</ele>
        <time>2012-08-10T08:33:59Z</time>
      </trkpt>
      <trkpt lat="47.31002" lon="4.97032">
        <ele>390.835</ele>
        <time>2012-08-10T08:34:10Z</time>
      </trkpt>
      <trkpt lat="47.31013" lon="4.97012">
        <ele>389.543</ele>
        <time>2012-08-10T08:34:21Z</time>
      </trkpt>
      <trkpt lat="47.31025" lon="4.96997">
        <ele>390.565</ele>
        <time>2012-08-10T08:34:32Z</time>
      </trkpt>
      <trkpt lat="47.3103" lon="4.9698">
        <ele>389.694</ele>
        <time>2012-08-10T08:34:43Z</time>
      </trkpt>
      <trkpt lat="47.31038" lon="4.9696">
        <ele>384.472</ele>
        <time>2012-08-10T08:34:54Z</time>
      </trkpt>
      <trkpt lat="47.31043" lon="4.96942">
        <ele>382.924</ele>
        <time>2012-08-10T08:35:05Z</time>
      </trkpt>
      <trkpt lat="47.31053" lon="4.96917">
        <ele>376.387</ele>
        <time>2012-08-10T08:35:16Z</time>
      </trkpt>
      <trkpt lat="47.31065" lon="4.96903">
        <ele>375.767</ele>
        <time>2012-08-10T08:35:27Z</time>
      </trkpt>
      <trkpt lat="47.3108" lon="4.96897">
        <ele>375.971</ele>
        <time>2012-08-10T08:35:38Z</time>
      </trkpt>
      <trkpt lat="47.31095" lon="4.96885">
        <ele>375.294</ele>
        <time>2012-08-10T08:35:49Z</time>
      </trkpt>
      <trkpt lat="47.31112" lon="4.96882">
        <ele>377.598</ele>
        <time>2012-08-10T08:36:00Z</time>
      </trkpt>
      <trkpt lat="47.31127" lon="4.96877">
        <ele>375.228</ele>
        <time>2012-08-10T08:36:11Z</time>
      </trkpt>
      <trkpt lat="47.31143" lon="4.96872">
        <ele>374.646</ele>
        <time>2012-08-10T08:36:22Z</time>
      </trkpt>
      <trkpt lat="47.31158" lon="4.96862">
        <ele>374.227</ele>
        <time>2012-08-10T08:36:33Z</time>
      </trkpt>
      <trkpt lat="47.31177" lon="4.96857">
        <ele>373.374</ele>
        <time>2012-08-10T08:36:44Z</time>
      </trkpt>
      <trkpt lat="47.31192" lon="4.96848">
        <ele>368.818</ele>
        <time>2012-08-10T08:36:55Z</time>
      </trkpt>
      <trkpt lat="47.31207" lon="4.96838">
        <ele>365.405</ele>
        <time>2012-08-10T08:37:06Z</time>
      </trkpt>
      <trkpt lat="47.31217" lon="4.96828">
        <ele>354.599</ele>
        <time>2012-08-10T08:37:17Z</time>
      </trkpt>
      <trkpt lat="47.31225" lon="4.96827">
        <ele>343.924</ele>
        <time>2012-08-10T08:37:28Z</time>
      </trkpt>
      <trkpt lat="47.31232" lon="4.96835">
        <ele>335.968</ele>
        <time>2012-08-10T08:37:39Z</time>
      </trkpt>
      <trkpt lat="47.31232" lon="4.96835">
        <ele>335.185</ele>
        <time>2012-08-10T08:37:50Z</time>
      </trkpt>
      <trkpt lat="47.3124" lon="4.96828">
        <ele>336.041</ele>
        <time>2012-08-10T08:38:01Z</time>
      </trkpt>
      <trkpt lat="47.31242" lon="4.96827">
        <ele>336.524</ele>
        <time>2012-08-10T08:38:12Z</time>
      </trkpt>
      <trkpt lat="47.31247" lon="4.96822">
        <ele>336.943</ele>
        <time>2012-08-10T08:38:23Z</time>
      </trkpt>
      <trkpt lat="47.31248" lon="4.96817">
        <ele>336.918</ele>
        <time>2012-08-10T08:38:34Z</time>
      </trkpt>
      <trkpt lat="47.31247" lon="4.96813">
        <ele>337.632</ele>
        <time>2012-08-10T08:38:45Z</time>
      </trkpt>
      <trkpt lat="47.31243" lon="4.96802">
        <ele>338.478</ele>
        <time>2012-08-10T08:38:56Z</time>
      </trkpt>
      <trkpt lat="47.31242" lon="4.96792">
        <ele>340.719</ele>
        <time>2012-08-10T08:39:07Z</time>
      </trkpt>
      <trkpt lat="47.31238" lon="4.96775">
        <ele>342.913</ele>
        <time>2012-08-10T08:39:18Z</time>
      </trkpt>
      <trkpt lat="47.31237" lon="4.96758">
        <ele>344.914</ele>
        <time>2012-08-10T08:39:29Z</time>
      </trkpt>
      <trkpt lat="47.31233" lon="4.96747">
        <ele>345.818</ele>
        <time>2012-08-10T08:39:40Z</time>
      </trkpt>
      <trkpt lat="47.31232" lon="4.96733">
        <ele>348.281</ele>
        <time>2012-08-10T08:39:51Z</time>
      </trkpt>
      <trkpt lat="47.31228" lon="4.96717">
        <ele>350.051</ele>
        <time>2012-08-10T08:40:02Z</time>
      </trkpt>
      <trkpt lat="47.31227" lon="4.9671">
        <ele>352.266</ele>
        <time>2012-08-10T08:40:13Z</time>
      </trkpt>
      <trkpt lat="47.31228" lon="4.96703">
        <ele>352.936</ele>
        <time>2012-08-10T08:40:24Z</time>
      </trkpt>
      <trkpt lat="47.31228" lon="4.96698">
        <ele>354.152</ele>
        <time>2012-08-10T08:40:35Z</time>
      </trkpt>
      <trkpt lat="47.3123" lon="4.96695">
        <ele>354.717</ele>
        <time>2012-08-10T08:40:46Z</time>
      </trkpt>
      <trkpt lat="47.3123" lon="4.96693">
        <ele>354.484</ele>
        <time>2012-08-10T08:40:57Z</time>
      </trkpt>
      <trkpt lat="47.3123" lon="4.96687">
        <ele>356.522</ele>
        <time>2012-08-10T08:41:08Z</time>
      </trkpt>
      <trkpt lat="47.3123" lon="4.96678">
        <ele>358.551</ele>
        <time>2012-08-10T08:41:19Z</time>
      </trkpt>
      <trkpt lat="47.31227" lon="4.96668">
        <ele>360.005</ele>
        <time>2012-08-10T08:41:30Z</time>
      </trkpt>
      <trkpt lat="47.31225" lon="4.96655">
        <ele>360.403</ele>
        <time>2012-08-10T08:41:41Z</time>
      </trkpt>
      <trkpt lat="47.31228" lon="4.96645">
        <ele>359.233</ele>
        <time>2012-08-10T08:41:52Z</time>
      </trkpt>
      <trkpt lat="47.31232" lon="4.96623">
        <ele>359.906</ele>
        <time>2012-08-10T08:42:03Z</time>
      </trkpt>
      <trkpt lat="47.31232" lon="4.96608">
        <ele>361.394</ele>
        <time>2012-08-10T08:42:14Z</time>
      </trkpt>
      <trkpt lat="47.31228" lon="4.96585">
        <ele>363.887</ele>
        <time>2012-08-10T08:42:25Z</time>
      </trkpt>
      <trkpt lat="47.31225" lon="4.96567">
        <ele>367.482</ele>
        <time>2012-08-10T08:42:36Z</time>
      </trkpt>
      <trkpt lat="47.31223" lon="4.96552">
        <ele>369.554</ele>
        <time>2012-08-10T08:42:47Z</time>
      </trkpt>
      <trkpt lat="47.31218" lon="4.96533">
        <ele>368.644</ele>
        <time>2012-08-10T08:42:58Z</time>
      </trkpt>
      <trkpt lat="47.31217" lon="4.96518">
        <ele>370.835</ele>
        <time>2012-08-10T08:43:09Z</time>
      </trkpt>
      <trkpt lat="47.31215" lon="4.96505">
        <ele>374.707</ele>
        <time>2012-08-10T08:43:20Z</time>
      </trkpt>
      <trkpt lat="47.31213" lon="4.96483">
        <ele>375.596</ele>
        <time>2012-08-10T08:43:31Z</time>
      </trkpt>
      <trkpt lat="47.3121" lon="4.9647">
        <ele>373.451</ele>
        <time>2012-08-10T08:43:42Z</time>
      </trkpt>
      <trkpt lat="47.31207" lon="4.96448">
        <ele>374.146</ele>
        <time>2012-08-10T08:43:53Z</time>
      </trkpt>
      <trkpt lat="47.31198" lon="4.96427">
        <ele>375.459</ele>
        <time>2012-08-10T08:44:04Z</time>
      </trkpt>
      <trkpt lat="47.31193" lon="4.9641">
        <ele>377.685</ele>
        <time>2012-08-10T08:44:15Z</time>
      </trkpt>
      <trkpt lat="47.31187" lon="4.96393">
        <ele>376.976</ele>
        <time>2012-08-10T08:44:26Z</time>
      </trkpt>
      <trkpt lat="47.31183" lon="4.9638">
        <ele>378.515</ele>
        <time>2012-08-10T08:44:37Z</time>
      </trkpt>
      <trkpt lat="47.31177" lon="4.96365">
        <ele>379.406</ele>
        <time>2012-08-10T08:44:48Z</time>
      </trkpt>
      <trkpt lat="47.31168" lon="4.9635">
        <ele>381.026</ele>
        <time>2012-08-10T08:44:59Z</time>
      </trkpt>
      <trkpt lat="47.31158" lon="4.96333">
        <ele>380.515</ele>
        <time>2012-08-10T08:45:10Z</time>
      </trkpt>
      <trkpt lat="47.31148" lon="4.96318">
        <ele>383.541</ele>
        <time>2012-08-10T08:45:21Z</time>
      </trkpt>
      <trkpt lat="47.3114" lon="4.96303">
        <ele>383.714</ele>
        <time>2012-08-10T08:45:32Z</time>
      </trkpt>
      <trkpt lat="47.31132" lon="4.96285">
        <ele>386.739</ele>
        <time>2012-08-10T08:45:43Z</time>
      </trkpt>
      <trkpt lat="47.31123" lon="4.96267">
        <ele>384.232</ele>
        <time>2012-08-10T08:45:54Z</time>
      </trkpt>
      <trkpt lat="47.3112" lon="4.96247">
        <ele>385.355</ele>
        <time>2012-08-10T08:46:05Z</time>
      </trkpt>
      <trkpt lat="47.31117" lon="4.9623">
        <ele>382.644</ele>
        <time>2012-08-10T08:46:16Z</time>
      </trkpt>
      <trkpt lat="47.3111" lon="4.96213">
        <ele>382.553</ele>
        <time>2012-08-10T08:46:27Z</time>
      </trkpt>
      <trkpt lat="47.31105" lon="4.96197">
        <ele>380.548</ele>
        <time>2012-08-10T08:46:38Z</time>
      </trkpt>
      <trkpt lat="47.31098" lon="4.96178">
        <ele>382.642</ele>
        <time>2012-08-10T08:46:49Z</time>
      </trkpt>
      <trkpt lat="47.31097" lon="4.96162">
        <ele>382.42</ele>
        <time>2012-08-10T08:47:00Z</time>
      </trkpt>
      <trkpt lat="47.31098" lon="4.96142">
        <ele>381.516</ele>
        <time>2012-08-10T08:47:11Z</time>
      </trkpt>
      <trkpt lat="47.311" lon="4.9612">
        <ele>380.867</ele>
        <time>2012-08-10T08:47:22Z</time>
      </trkpt>
      <trkpt lat="47.31098" lon="4.96103">
        <ele>379.217</ele>
        <time>2012-08-10T08:47:33Z</time>
      </trkpt>
      <trkpt lat="47.31098" lon="4.9609">
        <ele>379.256</ele>
        <time>2012-08-10T08:47:44Z</time>
      </trkpt>
      <trkpt lat="47.31102" lon="4.96075">
        <ele>382.328</ele>
        <time>2012-08-10T08:47:55Z</time>
      </trkpt>
      <trkpt lat="47.31102" lon="4.96057">
        <ele>383.624</ele>
        <time>2012-08-10T08:48:06Z</time>
      </trkpt>
      <trkpt lat="47.31102" lon="4.96042">
        <ele>383.456</ele>
        <time>2012-08-10T08:48:17Z</time>
      </trkpt>
      <trkpt lat="47.31103" lon="4.9602">
        <ele>384.14</ele>
        <time>2012-08-10T08:48:28Z</time>
      </trkpt>
      <trkpt lat="47.31103" lon="4.96">
        <ele>385.447</ele>
        <time>2012-08-10T08:48:39Z</time>
      </trkpt>
      <trkpt lat="47.31103" lon="4.95992">
        <ele>387.606</ele>
        <time>2012-08-10T08:48:50Z</time>
      </trkpt>
      <trkpt lat="47.31103" lon="4.95985">
        <ele>386.814</ele>
        <time>2012-08-10T08:49:01Z</time>
      </trkpt>
      <trkpt lat="47.31102" lon="4.95975">
        <ele>386.068</ele>
        <time>2012-08-10T08:49:12Z</time>
      </trkpt>
      <trkpt lat="47.311" lon="4.95965">
        <ele>386.51</ele>
        <time>2012-08-10T08:49:23Z</time>
      </trkpt>
      <trkpt lat="47.311" lon="4.95963">
        <ele>386.664</ele>
        <time>2012-08-10T08:49:34Z</time>
      </trkpt>
      <trkpt lat="47.31102" lon="4.95953">
        <ele>384.773</ele>
        <time>2012-08-10T08:49:45Z</time>
      </trkpt>
      <trkpt lat="47.31098" lon="4.95935">
        <ele>383.682</ele>
        <time>2012-08-10T08:49:56Z</time>
      </trkpt>
      <trkpt lat="47.311" lon="4.95932">
        <ele>381.889</ele>
        <time>2012-08-10T08:50:07Z</time>
      </trkpt>
      <trkpt lat="47.31103" lon="4.95932">
        <ele>382.814</ele>
        <time>2012-08-10T08:50:18Z</time>
      </trkpt>
      <trkpt lat="47.31105" lon="4.95932">
        <ele>382.425</ele>
        <time>2012-08-10T08:50:29Z</time>
      </trkpt>
      <trkpt lat="47.31107" lon="4.95932">
        <ele>382.6</ele>
        <time>2012-08-10T08:50:40Z</time>
      </trkpt>
      <trkpt lat="47.31112" lon="4.95933">
        <ele>383.035</ele>
        <time>2012-08-10T08:50:51Z</time>
      </trkpt>
      <trkpt lat="47.31113" lon="4.95937">
        <ele>383.989</ele>
        <time>2012-08-10T08:51:02Z</time>
      </trkpt>
      <trkpt lat="47.31118" lon="4.95937">
        <ele>382.899</ele>
        <time>2012-08-10T08:51:13Z</time>
      </trkpt>
      <trkpt lat="47.31122" lon="4.95925">
        <ele>382.41</ele>
        <time>2012-08-10T08:51:24Z</time>
      </trkpt>
      <trkpt lat="47.31125" lon="4.9592">
        <ele>384.563</ele>
        <time>2012-08-10T08:51:35Z</time>
      </trkpt>
      <trkpt lat="47.31123" lon="4.95907">
        <ele>386.286</ele>
        <time>2012-08-10T08:51:46Z</time>
      </trkpt>
      <trkpt lat="47.3112" lon="4.9589">
        <ele>390.196</ele>
        <time>2012-08-10T08:51:57Z</time>
      </trkpt>
      <trkpt lat="47.3112" lon="4.95878">
        <ele>392.425</ele>
        <time>2012-08-10T08:52:08Z</time>
      </trkpt>
      <trkpt lat="47.31122" lon="4.95873">
        <ele>393.915</ele>
        <time>2012-08-10T08:52:19Z</time>
      </trkpt>
      <trkpt lat="47.31125" lon="4.95862">
        <ele>397.726</ele>
        <time>2012-08-10T08:52:30Z</time>
      </trkpt>
      <trkpt lat="47.31125" lon="4.95852">
        <ele>400.295</ele>
        <time>2012-08-10T08:52:41Z</time>
      </trkpt>
      <trkpt lat="47.3113" lon="4.95837">
        <ele>400.722</ele>
        <time>2012-08-10T08:52:52Z</time>
      </trkpt>
      <trkpt lat="47.31133" lon="4.95827">
        <ele>401.45</ele>
        <time>2012-08-10T08:53:03Z</time>
      </trkpt>
      <trkpt lat="47.31138" lon="4.95817">
        <ele>401.403</ele>
        <time>2012-08-10T08:53:14Z</time>
      </trkpt>
      <trkpt lat="47.31145" lon="4.9581">
        <ele>401.056</ele>
        <time>2012-08-10T08:53:25Z</time>
      </trkpt>
      <trkpt lat="47.3115" lon="4.95813">
        <ele>401.129</ele>
        <time>2012-08-10T08:53:36Z</time>
      </trkpt>
      <trkpt lat="47.31158" lon="4.9582">
        <ele>403.32</ele>
        <time>2012-08-10T08:53:47Z</time>
      </trkpt>
      <trkpt lat="47.31158" lon="4.9583">
        <ele>404.308</ele>
        <time>2012-08-10T08:53:58Z</time>
      </trkpt>
      <trkpt lat="47.31162" lon="4.95842">
        <ele>406.112</ele>
        <time>2012-08-10T08:54:09Z</time>
      </trkpt>
      <trkpt lat="47.31167" lon="4.9585">
        <ele>406.577</ele>
        <time>2012-08-10T08:54:20Z</time>
      </trkpt>
      <trkpt lat="47.31177" lon="4.95852">
        <ele>406.154</ele>
        <time>2012-08-10T08:54:31Z</time>
      </trkpt>
      <trkpt lat="47.3118" lon="4.95852">
        <ele>408.31</ele>
        <time>2012-08-10T08:54:42Z</time>
      </trkpt>
      <trkpt lat="47.31183" lon="4.95848">
        <ele>409.633</ele>
        <time>2012-08-10T08:54:53Z</time>
      </trkpt>
      <trkpt lat="47.31188" lon="4.95845">
        <ele>411.949</ele>
        <time>2012-08-10T08:55:04Z</time>
      </trkpt>
      <trkpt lat="47.31193" lon="4.95842">
        <ele>414.468</ele>
        <time>2012-08-10T08:55:15Z</time>
      </trkpt>
      <trkpt lat="47.31203" lon="4.95837">
        <ele>416.758</ele>
        <time>2012-08-10T08:55:26Z</time>
      </trkpt>
      <trkpt lat="47.3121" lon="4.95833">
        <ele>417.207</ele>
        <time>2012-08-10T08:55:37Z</time>
      </trkpt>
      <trkpt lat="47.31215" lon="4.95827">
        <ele>418.626</ele>
        <time>2012-08-10T08:55:48Z</time>
      </trkpt>
      <trkpt lat="47.31215" lon="4.95827">
        <ele>418.163</ele>
        <time>2012-08-10T08:55:59Z</time>
      </trkpt>
      <trkpt lat="47.31217" lon="4.95827">
        <ele>417.829</ele>
        <time>2012-08-10T08:56:10Z</time>
      </trkpt>
      <trkpt lat="47.31217" lon="4.95825">
        <ele>417.724</ele>
        <time>2012-08-10T08:56:21Z</time>
      </trkpt>
      <trkpt lat="47.31217" lon="4.95827">
        <ele>417.761</ele>
        <time>2012-08-10T08:56:32Z</time>
      </trkpt>
      <trkpt lat="47.31218" lon="4.95827">
        <ele>417.693</ele>
        <time>2012-08-10T08:56:43Z</time>
      </trkpt>
      <trkpt lat="47.3122" lon="4.95827">
        <ele>417.77</ele>
        <time>2012-08-10T08:56:54Z</time>
      </trkpt>
      <trkpt lat="47.3122" lon="4.95827">
        <ele>417.77</ele>
        <time>2012-08-10T08:57:05Z</time>
      </trkpt>
      <trkpt lat="47.3122" lon="4.95827">
        <ele>417.77</ele>
        <time>2012-08-10T08:57:16Z</time>
      </trkpt>
      <trkpt lat="47.3122" lon="4.95827">
        <ele>417.77</ele>
        <time>2012-08-10T08:57:27Z</time>
      </trkpt>
      <trkpt lat="47.3122" lon="4.95827">
        <ele>417.77</ele>
        <time>2012-08-10T08:57:38Z</time>
      </trkpt>
      <trkpt lat="47.3122" lon="4.95827">
        <ele>417.746</ele>
        <time>2012-08-10T08:57:49Z</time>
      </trkpt>
      <trkpt lat="47.3122" lon="4.95827">
        <ele>417.746</ele>
        <time>2012-08-10T08:58:00Z</time>
      </trkpt>
      <trkpt lat="47.3122" lon="4.95827">
        <ele>417.746</ele>
        <time>2012-08-10T08:58:11Z</time>
      </trkpt>
      <trkpt lat="47.3122" lon="4.95827">
        <ele>417.983</ele>
        <time>2012-08-10T08:58:22Z</time>
      </trkpt>
      <trkpt lat="47.3122" lon="4.95825">
        <ele>417.168</ele>
        <time>2012-08-10T08:58:33Z</time>
      </trkpt>
      <trkpt lat="47.3122" lon="4.95825">
        <ele>417.168</ele>
        <time>2012-08-10T08:58:44Z</time>
      </trkpt>
      <trkpt lat="47.3122" lon="4.95825">
        <ele>417.168</ele>
        <time>2012-08-10T08:58:55Z</time>
      </trkpt>
      <trkpt lat="47.3122" lon="4.95827">
        <ele>417.575</ele>
        <time>2012-08-10T08:59:06Z</time>
      </trkpt>
      <trkpt lat="47.31227" lon="4.95817">
        <ele>423.185</ele>
        <time>2012-08-10T08:59:17Z</time>
      </trkpt>
      <trkpt lat="47.31232" lon="4.958">
        <ele>426</ele>
        <time>2012-08-10T08:59:28Z</time>
      </trkpt>
      <trkpt lat="47.31233" lon="4.95778">
        <ele>429.102</ele>
        <time>2012-08-10T08:59:39Z</time>
      </trkpt>
      <trkpt lat="47.31233" lon="4.95758">
        <ele>432.275</ele>
        <time>2012-08-10T08:59:50Z</time>
      </trkpt>
      <trkpt lat="47.31235" lon="4.95743">
        <ele>437.558</ele>
        <time>2012-08-10T09:00:01Z</time>
      </trkpt>
      <trkpt lat="47.31237" lon="4.95723">
        <ele>441.824</ele>
        <time>2012-08-10T09:00:12Z</time>
      </trkpt>
      <trkpt lat="47.31238" lon="4.95707">
        <ele>447.557</ele>
        <time>2012-08-10T09:00:23Z</time>
      </trkpt>
      <trkpt lat="47.31238" lon="4.9569">
        <ele>452.439</ele>
        <time>2012-08-10T09:00:34Z</time>
      </trkpt>
      <trkpt lat="47.3124" lon="4.95673">
        <ele>453.327</ele>
        <time>2012-08-10T09:00:45Z</time>
      </trkpt>
      <trkpt lat="47.3124" lon="4.95658">
        <ele>456.67</ele>
        <time>2012-08-10T09:00:56Z</time>
      </trkpt>
      <trkpt lat="47.3124" lon="4.95642">
        <ele>456.74</ele>
        <time>2012-08-10T09:01:07Z</time>
      </trkpt>
      <trkpt lat="47.3124" lon="4.95625">
        <ele>459.147</ele>
        <time>2012-08-10T09:01:18Z</time>
      </trkpt>
      <trkpt lat="47.3124" lon="4.9561">
        <ele>460.217</ele>
        <time>2012-08-10T09:01:29Z</time>
      </trkpt>
      <trkpt lat="47.31243" lon="4.95593">
        <ele>458.396</ele>
        <time>2012-08-10T09:01:40Z</time>
      </trkpt>
      <trkpt lat="47.31245" lon="4.95573">
        <ele>455.669</ele>
        <time>2012-08-10T09:01:51Z</time>
      </trkpt>
      <trkpt lat="47.31247" lon="4.95555">
        <ele>453.533</ele>
        <time>2012-08-10T09:02:02Z</time>
      </trkpt>
      <trkpt lat="47.3125" lon="4.95532">
        <ele>449.445</ele>
        <time>2012-08-10T09:02:13Z</time>
      </trkpt>
      <trkpt lat="47.31258" lon="4.95503">
        <ele>448.175</ele>
        <time>2012-08-10T09:02:24Z</time>
      </trkpt>
      <trkpt lat="47.31265" lon="4.95483">
        <ele>444.745</ele>
        <time>2012-08-10T09:02:35Z</time>
      </trkpt>
      <trkpt lat="47.31273" lon="4.95462">
        <ele>445.035</ele>
        <time>2012-08-10T09:02:46Z</time>
      </trkpt>
      <trkpt lat="47.31283" lon="4.9544">
        <ele>445.056</ele>
        <time>2012-08-10T09:02:57Z</time>
      </trkpt>
      <trkpt lat="47.31293" lon="4.9542">
        <ele>446.963</ele>
        <time>2012-08-10T09:03:08Z</time>
      </trkpt>
      <trkpt lat="47.31303" lon="4.95403">
        <ele>447.709</ele>
        <time>2012-08-10T09:03:19Z</time>
      </trkpt>
      <trkpt lat="47.31303" lon="4.95393">
        <ele>449.709</ele>
        <time>2012-08-10T09:03:30Z</time>
      </trkpt>
      <trkpt lat="47.31302" lon="4.9538">
        <ele>449.613</ele>
        <time>2012-08-10T09:03:41Z</time>
      </trkpt>
      <trkpt lat="47.313" lon="4.95368">
        <ele>450.295</ele>
        <time>2012-08-10T09:03:52Z</time>
      </trkpt>
      <trkpt lat="47.31297" lon="4.95345">
        <ele>450.181</ele>
        <time>2012-08-10T09:04:03Z</time>
      </trkpt>
      <trkpt lat="47.31295" lon="4.95325">
        <ele>449.858</ele>
        <time>2012-08-10T09:04:14Z</time>
      </trkpt>
      <trkpt lat="47.31292" lon="4.95302">
        <ele>451.279</ele>
        <time>2012-08-10T09:04:25Z</time>
      </trkpt>
      <trkpt lat="47.3129" lon="4.95278">
        <ele>452.278</ele>
        <time>2012-08-10T09:04:36Z</time>
      </trkpt>
      <trkpt lat="47.3129" lon="4.95257">
        <ele>453.51</ele>
        <time>2012-08-10T09:04:47Z</time>
      </trkpt>
      <trkpt lat="47.31287" lon="4.95238">
        <ele>452.467</ele>
        <time>2012-08-10T09:04:58Z</time>
      </trkpt>
      <trkpt lat="47.31283" lon="4.9522">
        <ele>450.365</ele>
        <time>2012-08-10T09:05:09Z</time>
      </trkpt>
      <trkpt lat="47.31278" lon="4.95195">
        <ele>449.301</ele>
        <time>2012-08-10T09:05:20Z</time>
      </trkpt>
      <trkpt lat="47.31275" lon="4.95165">
        <ele>445.504</ele>
        <time>2012-08-10T09:05:31Z</time>
      </trkpt>
      <trkpt lat="47.31272" lon="4.95138">
        <ele>445.501</ele>
        <time>2012-08-10T09:05:42Z</time>
      </trkpt>
      <trkpt lat="47.31263" lon="4.95113">
        <ele>443.502</ele>
        <time>2012-08-10T09:05:53Z</time>
      </trkpt>
      <trkpt lat="47.31257" lon="4.95088">
        <ele>440.573</ele>
        <time>2012-08-10T09:06:04Z</time>
      </trkpt>
      <trkpt lat="47.31252" lon="4.95068">
        <ele>438.446</ele>
        <time>2012-08-10T09:06:15Z</time>
      </trkpt>
      <trkpt lat="47.31247" lon="4.95052">
        <ele>438.332</ele>
        <time>2012-08-10T09:06:26Z</time>
      </trkpt>
      <trkpt lat="47.3124" lon="4.95028">
        <ele>437.175</ele>
        <time>2012-08-10T09:06:37Z</time>
      </trkpt>
      <trkpt lat="47.31235" lon="4.95005">
        <ele>436.627</ele>
        <time>2012-08-10T09:06:48Z</time>
      </trkpt>
      <trkpt lat="47.31222" lon="4.94995">
        <ele>434.768</ele>
        <time>2012-08-10T09:06:59Z</time>
      </trkpt>
      <trkpt lat="47.31212" lon="4.9498">
        <ele>434.803</ele>
        <time>2012-08-10T09:07:10Z</time>
      </trkpt>
      <trkpt lat="47.31205" lon="4.94967">
        <ele>436.12</ele>
        <time>2012-08-10T09:07:21Z</time>
      </trkpt>
      <trkpt lat="47.31195" lon="4.94948">
        <ele>436.919</ele>
        <time>2012-08-10T09:07:32Z</time>
      </trkpt>
      <trkpt lat="47.3118" lon="4.94937">
        <ele>435.692</ele>
        <time>2012-08-10T09:07:43Z</time>
      </trkpt>
      <trkpt lat="47.31167" lon="4.94933">
        <ele>433.892</ele>
        <time>2012-08-10T09:07:54Z</time>
      </trkpt>
      <trkpt lat="47.31155" lon="4.94933">
        <ele>432.501</ele>
        <time>2012-08-10T09:08:05Z</time>
      </trkpt>
      <trkpt lat="47.31138" lon="4.94933">
        <ele>431.835</ele>
        <time>2012-08-10T09:08:16Z</time>
      </trkpt>
      <trkpt lat="47.31123" lon="4.94932">
        <ele>433.416</ele>
        <time>2012-08-10T09:08:27Z</time>
      </trkpt>
      <trkpt lat="47.31108" lon="4.94933">
        <ele>433.772</ele>
        <time>2012-08-10T09:08:38Z</time>
      </trkpt>
      <trkpt lat="47.31093" lon="4.94933">
        <ele>434.581</ele>
        <time>2012-08-10T09:08:49Z</time>
      </trkpt>
      <trkpt lat="47.31078" lon="4.94935">
        <ele>433.588</ele>
        <time>2012-08-10T09:09:00Z</time>
      </trkpt>
      <trkpt lat="47.31065" lon="4.94933">
        <ele>433.337</ele>
        <time>2012-08-10T09:09:11Z</time>
      </trkpt>
      <trkpt lat="47.31053" lon="4.94918">
        <ele>433.262</ele>
        <time>2012-08-10T09:09:22Z</time>
      </trkpt>
      <trkpt lat="47.31053" lon="4.94898">
        <ele>434.392</ele>
        <time>2012-08-10T09:09:33Z</time>
      </trkpt>
      <trkpt lat="47.31052" lon="4.94885">
        <ele>436.426</ele>
        <time>2012-08-10T09:09:44Z</time>
      </trkpt>
      <trkpt lat="47.3105" lon="4.9487">
        <ele>440.177</ele>
        <time>2012-08-10T09:09:55Z</time>
      </trkpt>
      <trkpt lat="47.31047" lon="4.9485">
        <ele>442.978</ele>
        <time>2012-08-10T09:10:06Z</time>
      </trkpt>
      <trkpt lat="47.31047" lon="4.94835">
        <ele>444.06</ele>
        <time>2012-08-10T09:10:17Z</time>
      </trkpt>
      <trkpt lat="47.3105" lon="4.94813">
        <ele>444.034</ele>
        <time>2012-08-10T09:10:28Z</time>
      </trkpt>
      <trkpt lat="47.31052" lon="4.94795">
        <ele>445.33</ele>
        <time>2012-08-10T09:10:39Z</time>
      </trkpt>
      <trkpt lat="47.31053" lon="4.94792">
        <ele>445.206</ele>
        <time>2012-08-10T09:10:50Z</time>
      </trkpt>
      <trkpt lat="47.31053" lon="4.94792">
        <ele>445.206</ele>
        <time>2012-08-10T09:11:01Z</time>
      </trkpt>
      <trkpt lat="47.31053" lon="4.94792">
        <ele>445.206</ele>
        <time>2012-08-10T09:11:12Z</time>
      </trkpt>
      <trkpt lat="47.31053" lon="4.94792">
        <ele>445.206</ele>
        <time>2012-08-10T09:11:23Z</time>
      </trkpt>
      <trkpt lat="47.31053" lon="4.94792">
        <ele>445.206</ele>
        <time>2012-08-10T09:11:34Z</time>
      </trkpt>
      <trkpt lat="47.31055" lon="4.9478">
        <ele>445.538</ele>
        <time>2012-08-10T09:11:45Z</time>
      </trkpt>
      <trkpt lat="47.31055" lon="4.94763">
        <ele>448.028</ele>
        <time>2012-08-10T09:11:56Z</time>
      </trkpt>
      <trkpt lat="47.31062" lon="4.94747">
        <ele>450.161</ele>
        <time>2012-08-10T09:12:07Z</time>
      </trkpt>
      <trkpt lat="47.31067" lon="4.94722">
        <ele>451.945</ele>
        <time>2012-08-10T09:12:18Z</time>
      </trkpt>
      <trkpt lat="47.31068" lon="4.947">
        <ele>452.542</ele>
        <time>2012-08-10T09:12:29Z</time>
      </trkpt>
      <trkpt lat="47.31073" lon="4.9468">
        <ele>451.219</ele>
        <time>2012-08-10T09:12:40Z</time>
      </trkpt>
      <trkpt lat="47.31075" lon="4.94663">
        <ele>450.146</ele>
        <time>2012-08-10T09:12:51Z</time>
      </trkpt>
      <trkpt lat="47.31075" lon="4.94638">
        <ele>450.454</ele>
        <time>2012-08-10T09:13:02Z</time>
      </trkpt>
      <trkpt lat="47.31073" lon="4.94622">
        <ele>450.38</ele>
        <time>2012-08-10T09:13:13Z</time>
      </trkpt>
      <trkpt lat="47.31073" lon="4.94597">
        <ele>451.185</ele>
        <time>2012-08-10T09:13:24Z</time>
      </trkpt>
      <trkpt lat="47.3108" lon="4.9457">
        <ele>452.221</ele>
        <time>2012-08-10T09:13:35Z</time>
      </trkpt>
      <trkpt lat="47.31085" lon="4.94548">
        <ele>450.395</ele>
        <time>2012-08-10T09:13:46Z</time>
      </trkpt>
      <trkpt lat="47.31087" lon="4.94525">
        <ele>451.668</ele>
        <time>2012-08-10T09:13:57Z</time>
      </trkpt>
      <trkpt lat="47.3108" lon="4.94503">
        <ele>450.719</ele>
        <time>2012-08-10T09:14:08Z</time>
      </trkpt>
      <trkpt lat="47.31073" lon="4.94483">
        <ele>448.62</ele>
        <time>2012-08-10T09:14:19Z</time>
      </trkpt>
      <trkpt lat="47.31065" lon="4.94462">
        <ele>448.233</ele>
        <time>2012-08-10T09:14:30Z</time>
      </trkpt>
      <trkpt lat="47.31058" lon="4.9444">
        <ele>447.412</ele>
        <time>2012-08-10T09:14:41Z</time>
      </trkpt>
      <trkpt lat="47.31052" lon="4.94418">
        <ele>446.293</ele>
        <time>2012-08-10T09:14:52Z</time>
      </trkpt>
      <trkpt lat="47.31043" lon="4.94397">
        <ele>444.856</ele>
        <time>2012-08-10T09:15:03Z</time>
      </trkpt>
      <trkpt lat="47.31035" lon="4.9438">
        <ele>446.184</ele>
        <time>2012-08-10T09:15:14Z</time>
      </trkpt>
      <trkpt lat="47.31028" lon="4.9436">
        <ele>446.854</ele>
        <time>2012-08-10T09:15:25Z</time>
      </trkpt>
      <trkpt lat="47.31022" lon="4.9434">
        <ele>446.593</ele>
        <time>2012-08-10T09:15:36Z</time>
      </trkpt>
      <trkpt lat="47.31017" lon="4.94323">
        <ele>447.106</ele>
        <time>2012-08-10T09:15:47Z</time>
      </trkpt>
      <trkpt lat="47.31007" lon="4.94315">
        <ele>445.31</ele>
        <time>2012-08-10T09:15:58Z</time>
      </trkpt>
      <trkpt lat="47.30997" lon="4.94315">
        <ele>443.204</ele>
        <time>2012-08-10T09:16:09Z</time>
      </trkpt>
      <trkpt lat="47.30988" lon="4.9432">
        <ele>440.602</ele>
        <time>2012-08-10T09:16:20Z</time>
      </trkpt>
      <trkpt lat="47.30985" lon="4.9433">
        <ele>441.233</ele>
        <time>2012-08-10T09:16:31Z</time>
      </trkpt>
      <trkpt lat="47.30983" lon="4.94353">
        <ele>439.763</ele>
        <time>2012-08-10T09:16:42Z</time>
      </trkpt>
      <trkpt lat="47.30973" lon="4.9437">
        <ele>437.301</ele>
        <time>2012-08-10T09:16:53Z</time>
      </trkpt>
      <trkpt lat="47.30967" lon="4.94385">
        <ele>436.38</ele>
        <time>2012-08-10T09:17:04Z</time>
      </trkpt>
      <trkpt lat="47.30965" lon="4.94398">
        <ele>437.13</ele>
        <time>2012-08-10T09:17:15Z</time>
      </trkpt>
      <trkpt lat="47.3096" lon="4.9441">
        <ele>438.96</ele>
        <time>2012-08-10T09:17:26Z</time>
      </trkpt>
      <trkpt lat="47.30953" lon="4.94428">
        <ele>438.322</ele>
        <time>2012-08-10T09:17:37Z</time>
      </trkpt>
      <trkpt lat="47.3094" lon="4.94448">
        <ele>434.546</ele>
        <time>2012-08-10T09:17:48Z</time>
      </trkpt>
      <trkpt lat="47.3093" lon="4.9446">
        <ele>434.43</ele>
        <time>2012-08-10T09:17:59Z</time>
      </trkpt>
      <trkpt lat="47.30927" lon="4.94463">
        <ele>434.385</ele>
        <time>2012-08-10T09:18:10Z</time>
      </trkpt>
      <trkpt lat="47.30922" lon="4.94455">
        <ele>435.237</ele>
        <time>2012-08-10T09:18:21Z</time>
      </trkpt>
      <trkpt lat="47.3091" lon="4.94453">
        <ele>436.264</ele>
        <time>2012-08-10T09:18:32Z</time>
      </trkpt>
      <trkpt lat="47.30903" lon="4.94455">
        <ele>436.973</ele>
        <time>2012-08-10T09:18:43Z</time>
      </trkpt>
      <trkpt lat="47.3089" lon="4.94453">
        <ele>437.096</ele>
        <time>2012-08-10T09:18:54Z</time>
      </trkpt>
      <trkpt lat="47.30878" lon="4.94447">
        <ele>438.622</ele>
        <time>2012-08-10T09:19:05Z</time>
      </trkpt>
      <trkpt lat="47.30865" lon="4.94442">
        <ele>438.054</ele>
        <time>2012-08-10T09:19:16Z</time>
      </trkpt>
      <trkpt lat="47.30847" lon="4.94433">
        <ele>438.576</ele>
        <time>2012-08-10T09:19:27Z</time>
      </trkpt>
      <trkpt lat="47.30835" lon="4.94425">
        <ele>438.459</ele>
        <time>2012-08-10T09:19:38Z</time>
      </trkpt>
      <trkpt lat="47.30823" lon="4.94413">
        <ele>439.814</ele>
        <time>2012-08-10T09:19:49Z</time>
      </trkpt>
      <trkpt lat="47.30813" lon="4.94402">
        <ele>439.599</ele>
        <time>2012-08-10T09:20:00Z</time>
      </trkpt>
      <trkpt lat="47.30795" lon="4.94398">
        <ele>439.056</ele>
        <time>2012-08-10T09:20:11Z</time>
      </trkpt>
      <trkpt lat="47.30777" lon="4.94402">
        <ele>438.314</ele>
        <time>2012-08-10T09:20:22Z</time>
      </trkpt>
      <trkpt lat="47.30768" lon="4.94405">
        <ele>438.596</ele>
        <time>2012-08-10T09:20:33Z</time>
      </trkpt>
      <trkpt lat="47.30758" lon="4.94413">
        <ele>441.077</ele>
        <time>2012-08-10T09:20:44Z</time>
      </trkpt>
      <trkpt lat="47.3075" lon="4.9442">
        <ele>441.315</ele>
        <time>2012-08-10T09:20:55Z</time>
      </trkpt>
      <trkpt lat="47.30737" lon="4.94433">
        <ele>442.593</ele>
        <time>2012-08-10T09:21:06Z</time>
      </trkpt>
      <trkpt lat="47.3073" lon="4.94453">
        <ele>444.868</ele>
        <time>2012-08-10T09:21:17Z</time>
      </trkpt>
      <trkpt lat="47.30723" lon="4.9446">
        <ele>446.014</ele>
        <time>2012-08-10T09:21:28Z</time>
      </trkpt>
      <trkpt lat="47.30718" lon="4.9448">
        <ele>447.373</ele>
        <time>2012-08-10T09:21:39Z</time>
      </trkpt>
      <trkpt lat="47.30715" lon="4.94495">
        <ele>449.49</ele>
        <time>2012-08-10T09:21:50Z</time>
      </trkpt>
      <trkpt lat="47.30712" lon="4.94512">
        <ele>451.476</ele>
        <time>2012-08-10T09:22:01Z</time>
      </trkpt>
      <trkpt lat="47.30707" lon="4.94532">
        <ele>451.756</ele>
        <time>2012-08-10T09:22:12Z</time>
      </trkpt>
      <trkpt lat="47.307" lon="4.94555">
        <ele>450.93</ele>
        <time>2012-08-10T09:22:23Z</time>
      </trkpt>
      <trkpt lat="47.30688" lon="4.94577">
        <ele>449.782</ele>
        <time>2012-08-10T09:22:34Z</time>
      </trkpt>
      <trkpt lat="47.30683" lon="4.94593">
        <ele>451.331</ele>
        <time>2012-08-10T09:22:45Z</time>
      </trkpt>
      <trkpt lat="47.30687" lon="4.94612">
        <ele>450.396</ele>
        <time>2012-08-10T09:22:56Z</time>
      </trkpt>
      <trkpt lat="47.30695" lon="4.9462">
        <ele>449.127</ele>
        <time>2012-08-10T09:23:07Z</time>
      </trkpt>
      <trkpt lat="47.307" lon="4.94628">
        <ele>451.25</ele>
        <time>2012-08-10T09:23:18Z</time>
      </trkpt>
      <trkpt lat="47.30705" lon="4.94643">
        <ele>453.898</ele>
        <time>2012-08-10T09:23:29Z</time>
      </trkpt>
      <trkpt lat="47.30708" lon="4.94657">
        <ele>458.745</ele>
        <time>2012-08-10T09:23:40Z</time>
      </trkpt>
      <trkpt lat="47.30708" lon="4.9468">
        <ele>460.437</ele>
        <time>2012-08-10T09:23:51Z</time>
      </trkpt>
      <trkpt lat="47.30713" lon="4.94697">
        <ele>460.671</ele>
        <time>2012-08-10T09:24:02Z</time>
      </trkpt>
      <trkpt lat="47.30717" lon="4.94713">
        <ele>458.576</ele>
        <time>2012-08-10T09:24:13Z</time>
      </trkpt>
      <trkpt lat="47.30722" lon="4.94733">
        <ele>457.987</ele>
        <time>2012-08-10T09:24:24Z</time>
      </trkpt>
      <trkpt lat="47.30727" lon="4.94753">
        <ele>456.113</ele>
        <time>2012-08-10T09:24:35Z</time>
      </trkpt>
      <trkpt lat="47.30727" lon="4.94773">
        <ele>455.582</ele>
        <time>2012-08-10T09:24:46Z</time>
      </trkpt>
      <trkpt lat="47.30732" lon="4.94795">
        <ele>455.295</ele>
        <time>2012-08-10T09:24:57Z</time>
      </trkpt>
      <trkpt lat="47.30735" lon="4.9481">
        <ele>456.483</ele>
        <time>2012-08-10T09:25:08Z</time>
      </trkpt>
      <trkpt lat="47.3073" lon="4.9483">
        <ele>456.428</ele>
        <time>2012-08-10T09:25:19Z</time>
      </trkpt>
      <trkpt lat="47.3073" lon="4.9484">
        <ele>456.286</ele>
        <time>2012-08-10T09:25:30Z</time>
      </trkpt>
      <trkpt lat="47.30725" lon="4.9486">
        <ele>456.275</ele>
        <time>2012-08-10T09:25:41Z</time>
      </trkpt>
      <trkpt lat="47.30725" lon="4.94873">
        <ele>456.335</ele>
        <time>2012-08-10T09:25:52Z</time>
      </trkpt>
      <trkpt lat="47.3072" lon="4.94893">
        <ele>455.815</ele>
        <time>2012-08-10T09:26:03Z</time>
      </trkpt>
      <trkpt lat="47.30718" lon="4.94913">
        <ele>455.221</ele>
        <time>2012-08-10T09:26:14Z</time>
      </trkpt>
      <trkpt lat="47.30705" lon="4.94928">
        <ele>453.925</ele>
        <time>2012-08-10T09:26:25Z</time>
      </trkpt>
      <trkpt lat="47.30693" lon="4.94945">
        <ele>453.936</ele>
        <time>2012-08-10T09:26:36Z</time>
      </trkpt>
      <trkpt lat="47.30688" lon="4.94963">
        <ele>457.564</ele>
        <time>2012-08-10T09:26:47Z</time>
      </trkpt>
      <trkpt lat="47.30682" lon="4.94978">
        <ele>459.491</ele>
        <time>2012-08-10T09:26:58Z</time>
      </trkpt>
      <trkpt lat="47.30677" lon="4.95005">
        <ele>458.55</ele>
        <time>2012-08-10T09:27:09Z</time>
      </trkpt>
      <trkpt lat="47.30667" lon="4.95022">
        <ele>458.14</ele>
        <time>2012-08-10T09:27:20Z</time>
      </trkpt>
      <trkpt lat="47.30658" lon="4.95037">
        <ele>457.186</ele>
        <time>2012-08-10T09:27:31Z</time>
      </trkpt>
      <trkpt lat="47.30643" lon="4.95067">
        <ele>453.69</ele>
        <time>2012-08-10T09:27:42Z</time>
      </trkpt>
      <trkpt lat="47.30637" lon="4.95092">
        <ele>452.697</ele>
        <time>2012-08-10T09:27:53Z</time>
      </trkpt>
      <trkpt lat="47.3063" lon="4.95118">
        <ele>450.554</ele>
        <time>2012-08-10T09:28:04Z</time>
      </trkpt>
      <trkpt lat="47.30625" lon="4.95142">
        <ele>448.857</ele>
        <time>2012-08-10T09:28:15Z</time>
      </trkpt>
      <trkpt lat="47.30618" lon="4.95163">
        <ele>445.901</ele>
        <time>2012-08-10T09:28:26Z</time>
      </trkpt>
      <trkpt lat="47.30607" lon="4.95177">
        <ele>443.892</ele>
        <time>2012-08-10T09:28:37Z</time>
      </trkpt>
      <trkpt lat="47.30598" lon="4.95195">
        <ele>442.798</ele>
        <time>2012-08-10T09:28:48Z</time>
      </trkpt>
      <trkpt lat="47.30592" lon="4.95218">
        <ele>439.431</ele>
        <time>2012-08-10T09:28:59Z</time>
      </trkpt>
      <trkpt lat="47.30583" lon="4.95235">
        <ele>436.287</ele>
        <time>2012-08-10T09:29:10Z</time>
      </trkpt>
      <trkpt lat="47.30583" lon="4.95237">
        <ele>436.02</ele>
        <time>2012-08-10T09:29:21Z</time>
      </trkpt>
      <trkpt lat="47.30583" lon="4.95237">
        <ele>436.02</ele>
        <time>2012-08-10T09:29:32Z</time>
      </trkpt>
      <trkpt lat="47.30583" lon="4.95237">
        <ele>436.02</ele>
        <time>2012-08-10T09:29:43Z</time>
      </trkpt>
      <trkpt lat="47.30583" lon="4.95237">
        <ele>436.02</ele>
        <time>2012-08-10T09:29:54Z</time>
      </trkpt>
      <trkpt lat="47.30577" lon="4.9525">
        <ele>435.991</ele>
        <time>2012-08-10T09:30:05Z</time>
      </trkpt>
      <trkpt lat="47.30572" lon="4.9526">
        <ele>437.131</ele>
        <time>2012-08-10T09:30:16Z</time>
      </trkpt>
      <trkpt lat="47.30562" lon="4.95272">
        <ele>436.084</ele>
        <time>2012-08-10T09:30:27Z</time>
      </trkpt>
      <trkpt lat="47.30555" lon="4.95275">
        <ele>435.886</ele>
        <time>2012-08-10T09:30:38Z</time>
      </trkpt>
      <trkpt lat="47.30547" lon="4.95273">
        <ele>436.25</ele>
        <time>2012-08-10T09:30:49Z</time>
      </trkpt>
      <trkpt lat="47.30537" lon="4.95268">
        <ele>436.658</ele>
        <time>2012-08-10T09:31:00Z</time>
      </trkpt>
      <trkpt lat="47.30527" lon="4.95262">
        <ele>437.081</ele>
        <time>2012-08-10T09:31:11Z</time>
      </trkpt>
      <trkpt lat="47.30513" lon="4.95257">
        <ele>438.062</ele>
        <time>2012-08-10T09:31:22Z</time>
      </trkpt>
      <trkpt lat="47.30502" lon="4.95242">
        <ele>439.894</ele>
        <time>2012-08-10T09:31:33Z</time>
      </trkpt>
      <trkpt lat="47.30488" lon="4.95232">
        <ele>439.985</ele>
        <time>2012-08-10T09:31:44Z</time>
      </trkpt>
      <trkpt lat="47.3047" lon="4.95217">
        <ele>439.863</ele>
        <time>2012-08-10T09:31:55Z</time>
      </trkpt>
      <trkpt lat="47.30455" lon="4.95207">
        <ele>442.908</ele>
        <time>2012-08-10T09:32:06Z</time>
      </trkpt>
      <trkpt lat="47.30442" lon="4.95187">
        <ele>442.763</ele>
        <time>2012-08-10T09:32:17Z</time>
      </trkpt>
      <trkpt lat="47.30432" lon="4.95167">
        <ele>440.936</ele>
        <time>2012-08-10T09:32:28Z</time>
      </trkpt>
      <trkpt lat="47.30425" lon="4.9515">
        <ele>441.056</ele>
        <time>2012-08-10T09:32:39Z</time>
      </trkpt>
      <trkpt lat="47.30412" lon="4.95133">
        <ele>438.875</ele>
        <time>2012-08-10T09:32:50Z</time>
      </trkpt>
      <trkpt lat="47.30402" lon="4.95118">
        <ele>437.496</ele>
        <time>2012-08-10T09:33:01Z</time>
      </trkpt>
      <trkpt lat="47.3039" lon="4.951">
        <ele>436.798</ele>
        <time>2012-08-10T09:33:12Z</time>
      </trkpt>
      <trkpt lat="47.30382" lon="4.95087">
        <ele>437.624</ele>
        <time>2012-08-10T09:33:23Z</time>
      </trkpt>
      <trkpt lat="47.30382" lon="4.95083">
        <ele>437.19</ele>
        <time>2012-08-10T09:33:34Z</time>
      </trkpt>
      <trkpt lat="47.30382" lon="4.95083">
        <ele>437.099</ele>
        <time>2012-08-10T09:33:45Z</time>
      </trkpt>
      <trkpt lat="47.3038" lon="4.95077">
        <ele>437.185</ele>
        <time>2012-08-10T09:33:56Z</time>
      </trkpt>
      <trkpt lat="47.3037" lon="4.95067">
        <ele>436.174</ele>
        <time>2012-08-10T09:34:07Z</time>
      </trkpt>
      <trkpt lat="47.30353" lon="4.9507">
        <ele>434.582</ele>
        <time>2012-08-10T09:34:18Z</time>
      </trkpt>
      <trkpt lat="47.30343" lon="4.95078">
        <ele>433.851</ele>
        <time>2012-08-10T09:34:29Z</time>
      </trkpt>
      <trkpt lat="47.3034" lon="4.95082">
        <ele>433.133</ele>
        <time>2012-08-10T09:34:40Z</time>
      </trkpt>
      <trkpt lat="47.30338" lon="4.95082">
        <ele>432.787</ele>
        <time>2012-08-10T09:34:51Z</time>
      </trkpt>
      <trkpt lat="47.30338" lon="4.95082">
        <ele>432.763</ele>
        <time>2012-08-10T09:35:02Z</time>
      </trkpt>
      <trkpt lat="47.3033" lon="4.95087">
        <ele>432.521</ele>
        <time>2012-08-10T09:35:13Z</time>
      </trkpt>
      <trkpt lat="47.30325" lon="4.95088">
        <ele>431.531</ele>
        <time>2012-08-10T09:35:24Z</time>
      </trkpt>
      <trkpt lat="47.30317" lon="4.95077">
        <ele>432.122</ele>
        <time>2012-08-10T09:35:35Z</time>
      </trkpt>
      <trkpt lat="47.30308" lon="4.95065">
        <ele>433.082</ele>
        <time>2012-08-10T09:35:46Z</time>
      </trkpt>
      <trkpt lat="47.303" lon="4.95052">
        <ele>432.567</ele>
        <time>2012-08-10T09:35:57Z</time>
      </trkpt>
      <trkpt lat="47.30293" lon="4.95048">
        <ele>432.678</ele>
        <time>2012-08-10T09:36:08Z</time>
      </trkpt>
      <trkpt lat="47.30283" lon="4.95038">
        <ele>434.498</ele>
        <time>2012-08-10T09:36:19Z</time>
      </trkpt>
      <trkpt lat="47.30273" lon="4.95025">
        <ele>434.868</ele>
        <time>2012-08-10T09:36:30Z</time>
      </trkpt>
      <trkpt lat="47.30262" lon="4.95005">
        <ele>434.414</ele>
        <time>2012-08-10T09:36:41Z</time>
      </trkpt>
      <trkpt lat="47.30247" lon="4.94978">
        <ele>435.501</ele>
        <time>2012-08-10T09:36:52Z</time>
      </trkpt>
      <trkpt lat="47.30233" lon="4.94953">
        <ele>435.342</ele>
        <time>2012-08-10T09:37:03Z</time>
      </trkpt>
      <trkpt lat="47.30223" lon="4.9494">
        <ele>438.437</ele>
        <time>2012-08-10T09:37:14Z</time>
      </trkpt>
      <trkpt lat="47.30217" lon="4.94925">
        <ele>440.63</ele>
        <time>2012-08-10T09:37:25Z</time>
      </trkpt>
      <trkpt lat="47.30205" lon="4.94908">
        <ele>441.335</ele>
        <time>2012-08-10T09:37:36Z</time>
      </trkpt>
      <trkpt lat="47.302" lon="4.9489">
        <ele>440.501</ele>
        <time>2012-08-10T09:37:47Z</time>
      </trkpt>
      <trkpt lat="47.30182" lon="4.94882">
        <ele>436.708</ele>
        <time>2012-08-10T09:37:58Z</time>
      </trkpt>
      <trkpt lat="47.30168" lon="4.94872">
        <ele>437.046</ele>
        <time>2012-08-10T09:38:09Z</time>
      </trkpt>
      <trkpt lat="47.30155" lon="4.94855">
        <ele>436.482</ele>
        <time>2012-08-10T09:38:20Z</time>
      </trkpt>
      <trkpt lat="47.3015" lon="4.94848">
        <ele>433.506</ele>
        <time>2012-08-10T09:38:31Z</time>
      </trkpt>
      <trkpt lat="47.30143" lon="4.94845">
        <ele>428.786</ele>
        <time>2012-08-10T09:38:42Z</time>
      </trkpt>
      <trkpt lat="47.30133" lon="4.94845">
        <ele>425.34</ele>
        <time>2012-08-10T09:38:53Z</time>
      </trkpt>
      <trkpt lat="47.30117" lon="4.94848">
        <ele>424.592</ele>
        <time>2012-08-10T09:39:04Z</time>
      </trkpt>
      <trkpt lat="47.30108" lon="4.94853">
        <ele>424.79</ele>
        <time>2012-08-10T09:39:15Z</time>
      </trkpt>
      <trkpt lat="47.30093" lon="4.94848">
        <ele>422.952</ele>
        <time>2012-08-10T09:39:26Z</time>
      </trkpt>
      <trkpt lat="47.30077" lon="4.94852">
        <ele>421.74</ele>
        <time>2012-08-10T09:39:37Z</time>
      </trkpt>
      <trkpt lat="47.30063" lon="4.94858">
        <ele>420.816</ele>
        <time>2012-08-10T09:39:48Z</time>
      </trkpt>
      <trkpt lat="47.30052" lon="4.94877">
        <ele>419.66</ele>
        <time>2012-08-10T09:39:59Z</time>
      </trkpt>
      <trkpt lat="47.30053" lon="4.949">
        <ele>419.228</ele>
        <time>2012-08-10T09:40:10Z</time>
      </trkpt>
      <trkpt lat="47.30057" lon="4.94922">
        <ele>420.071</ele>
        <time>2012-08-10T09:40:21Z</time>
      </trkpt>
      <trkpt lat="47.3006" lon="4.94947">
        <ele>417.648</ele>
        <time>2012-08-10T09:40:32Z</time>
      </trkpt>
      <trkpt lat="47.30063" lon="4.9497">
        <ele>415.173</ele>
        <time>2012-08-10T09:40:43Z</time>
      </trkpt>
      <trkpt lat="47.30067" lon="4.94992">
        <ele>411.382</ele>
        <time>2012-08-10T09:40:54Z</time>
      </trkpt>
      <trkpt lat="47.30067" lon="4.95012">
        <ele>411.943</ele>
        <time>2012-08-10T09:41:05Z</time>
      </trkpt>
      <trkpt lat="47.3007" lon="4.9503">
        <ele>412.702</ele>
        <time>2012-08-10T09:41:16Z</time>
      </trkpt>
      <trkpt lat="47.30072" lon="4.95053">
        <ele>413.053</ele>
        <time>2012-08-10T09:41:27Z</time>
      </trkpt>
      <trkpt lat="47.30073" lon="4.95075">
        <ele>413.414</ele>
        <time>2012-08-10T09:41:38Z</time>
      </trkpt>
      <trkpt lat="47.30075" lon="4.95095">
        <ele>415.275</ele>
        <time>2012-08-10T09:41:49Z</time>
      </trkpt>
      <trkpt lat="47.30078" lon="4.9512">
        <ele>416.061</ele>
        <time>2012-08-10T09:42:00Z</time>
      </trkpt>
      <trkpt lat="47.30078" lon="4.95143">
        <ele>417.552</ele>
        <time>2012-08-10T09:42:11Z</time>
      </trkpt>
      <trkpt lat="47.3008" lon="4.95167">
        <ele>418.604</ele>
        <time>2012-08-10T09:42:22Z</time>
      </trkpt>
      <trkpt lat="47.30082" lon="4.95188">
        <ele>419.465</ele>
        <time>2012-08-10T09:42:33Z</time>
      </trkpt>
      <trkpt lat="47.30085" lon="4.95212">
        <ele>419.671</ele>
        <time>2012-08-10T09:42:44Z</time>
      </trkpt>
      <trkpt lat="47.30087" lon="4.9523">
        <ele>421.904</ele>
        <time>2012-08-10T09:42:55Z</time>
      </trkpt>
      <trkpt lat="47.30088" lon="4.95248">
        <ele>424.348</ele>
        <time>2012-08-10T09:43:06Z</time>
      </trkpt>
      <trkpt lat="47.3009" lon="4.95272">
        <ele>425.279</ele>
        <time>2012-08-10T09:43:17Z</time>
      </trkpt>
      <trkpt lat="47.3009" lon="4.95293">
        <ele>427.227</ele>
        <time>2012-08-10T09:43:28Z</time>
      </trkpt>
      <trkpt lat="47.30093" lon="4.95313">
        <ele>429.558</ele>
        <time>2012-08-10T09:43:39Z</time>
      </trkpt>
      <trkpt lat="47.30095" lon="4.95338">
        <ele>430.039</ele>
        <time>2012-08-10T09:43:50Z</time>
      </trkpt>
      <trkpt lat="47.30097" lon="4.95358">
        <ele>432.566</ele>
        <time>2012-08-10T09:44:01Z</time>
      </trkpt>
      <trkpt lat="47.301" lon="4.95377">
        <ele>435.375</ele>
        <time>2012-08-10T09:44:12Z</time>
      </trkpt>
      <trkpt lat="47.30103" lon="4.95398">
        <ele>437.077</ele>
        <time>2012-08-10T09:44:23Z</time>
      </trkpt>
      <trkpt lat="47.30107" lon="4.95418">
        <ele>439.918</ele>
        <time>2012-08-10T09:44:34Z</time>
      </trkpt>
      <trkpt lat="47.30108" lon="4.95438">
        <ele>442.377</ele>
        <time>2012-08-10T09:44:45Z</time>
      </trkpt>
      <trkpt lat="47.30108" lon="4.95458">
        <ele>444.869</ele>
        <time>2012-08-10T09:44:56Z</time>
      </trkpt>
      <trkpt lat="47.30108" lon="4.95482">
        <ele>445.206</ele>
        <time>2012-08-10T09:45:07Z</time>
      </trkpt>
      <trkpt lat="47.3011" lon="4.95503">
        <ele>445.596</ele>
        <time>2012-08-10T09:45:18Z</time>
      </trkpt>
      <trkpt lat="47.3011" lon="4.95523">
        <ele>446.777</ele>
        <time>2012-08-10T09:45:29Z</time>
      </trkpt>
      <trkpt lat="47.3011" lon="4.95548">
        <ele>446.757</ele>
        <time>2012-08-10T09:45:40Z</time>
      </trkpt>
      <trkpt lat="47.30112" lon="4.95567">
        <ele>448.43</ele>
        <time>2012-08-10T09:45:51Z</time>
      </trkpt>
      <trkpt lat="47.30113" lon="4.9559">
        <ele>447.776</ele>
        <time>2012-08-10T09:46:02Z</time>
      </trkpt>
      <trkpt lat="47.30112" lon="4.95613">
        <ele>446.455</ele>
        <time>2012-08-10T09:46:13Z</time>
      </trkpt>
      <trkpt lat="47.3011" lon="4.95637">
        <ele>445.378</ele>
        <time>2012-08-10T09:46:24Z</time>
      </trkpt>
      <trkpt lat="47.30112" lon="4.9566">
        <ele>445.525</ele>
        <time>2012-08-10T09:46:35Z</time>
      </trkpt>
      <trkpt lat="47.30113" lon="4.95682">
        <ele>445.29</ele>
        <time>2012-08-10T09:46:46Z</time>
      </trkpt>
      <trkpt lat="47.30113" lon="4.95703">
        <ele>443.582</ele>
        <time>2012-08-10T09:46:57Z</time>
      </trkpt>
      <trkpt lat="47.30115" lon="4.95722">
        <ele>443.944</ele>
        <time>2012-08-10T09:47:08Z</time>
      </trkpt>
      <trkpt lat="47.30115" lon="4.95735">
        <ele>443.599</ele>
        <time>2012-08-10T09:47:19Z</time>
      </trkpt>
      <trkpt lat="47.30117" lon="4.95743">
        <ele>443.594</ele>
        <time>2012-08-10T09:47:30Z</time>
      </trkpt>
      <trkpt lat="47.30117" lon="4.95743">
        <ele>443.038</ele>
        <time>2012-08-10T09:47:41Z</time>
      </trkpt>
      <trkpt lat="47.30117" lon="4.95745">
        <ele>442.716</ele>
        <time>2012-08-10T09:47:52Z</time>
      </trkpt>
      <trkpt lat="47.30117" lon="4.95745">
        <ele>442.716</ele>
        <time>2012-08-10T09:48:03Z</time>
      </trkpt>
      <trkpt lat="47.30117" lon="4.95745">
        <ele>442.689</ele>
        <time>2012-08-10T09:48:14Z</time>
      </trkpt>
      <trkpt lat="47.30117" lon="4.95745">
        <ele>442.689</ele>
        <time>2012-08-10T09:48:25Z</time>
      </trkpt>
      <trkpt lat="47.30117" lon="4.95745">
        <ele>442.689</ele>
        <time>2012-08-10T09:48:36Z</time>
      </trkpt>
      <trkpt lat="47.30117" lon="4.95745">
        <ele>442.392</ele>
        <time>2012-08-10T09:48:47Z</time>
      </trkpt>
      <trkpt lat="47.30117" lon="4.95747">
        <ele>441.565</ele>
        <time>2012-08-10T09:48:58Z</time>
      </trkpt>
      <trkpt lat="47.30117" lon="4.95747">
        <ele>441.565</ele>
        <time>2012-08-10T09:49:09Z</time>
      </trkpt>
      <trkpt lat="47.30118" lon="4.95747">
        <ele>441.348</ele>
        <time>2012-08-10T09:49:20Z</time>
      </trkpt>
      <trkpt lat="47.30118" lon="4.95747">
        <ele>441.348</ele>
        <time>2012-08-10T09:49:31Z</time>
      </trkpt>
      <trkpt lat="47.30118" lon="4.95747">
        <ele>441.245</ele>
        <time>2012-08-10T09:49:42Z</time>
      </trkpt>
      <trkpt lat="47.30118" lon="4.95747">
        <ele>441.015</ele>
        <time>2012-08-10T09:49:53Z</time>
      </trkpt>
      <trkpt lat="47.30118" lon="4.95747">
        <ele>441.015</ele>
        <time>2012-08-10T09:50:04Z</time>
      </trkpt>
      <trkpt lat="47.30118" lon="4.95747">
        <ele>440.373</ele>
        <time>2012-08-10T09:50:15Z</time>
      </trkpt>
      <trkpt lat="47.30118" lon="4.95747">
        <ele>440.365</ele>
        <time>2012-08-10T09:50:26Z</time>
      </trkpt>
      <trkpt lat="47.30118" lon="4.95747">
        <ele>440.324</ele>
        <time>2012-08-10T09:50:37Z</time>
      </trkpt>
      <trkpt lat="47.30118" lon="4.95747">
        <ele>440.324</ele>
        <time>2012-08-10T09:50:48Z</time>
      </trkpt>
      <trkpt lat="47.30118" lon="4.95747">
        <ele>439.487</ele>
        <time>2012-08-10T09:50:59Z</time>
      </trkpt>
      <trkpt lat="47.30118" lon="4.95748">
        <ele>439.392</ele>
        <time>2012-08-10T09:51:10Z</time>
      </trkpt>
      <trkpt lat="47.30118" lon="4.95748">
        <ele>439.392</ele>
        <time>2012-08-10T09:51:21Z</time>
      </trkpt>
      <trkpt lat="47.30118" lon="4.95748">
        <ele>439.392</ele>
        <time>2012-08-10T09:51:32Z</time>
      </trkpt>
      <trkpt lat="47.3012" lon="4.95748">
        <ele>439.083</ele>
        <time>2012-08-10T09:51:43Z</time>
      </trkpt>
      <trkpt lat="47.3012" lon="4.95748">
        <ele>439.083</ele>
        <time>2012-08-10T09:51:54Z</time>
      </trkpt>
      <trkpt lat="47.3012" lon="4.95748">
        <ele>439.083</ele>
        <time>2012-08-10T09:52:05Z</time>
      </trkpt>
      <trkpt lat="47.3012" lon="4.95748">
        <ele>438.715</ele>
        <time>2012-08-10T09:52:16Z</time>
      </trkpt>
      <trkpt lat="47.3012" lon="4.95748">
        <ele>438.715</ele>
        <time>2012-08-10T09:52:27Z</time>
      </trkpt>
      <trkpt lat="47.3012" lon="4.95748">
        <ele>438.482</ele>
        <time>2012-08-10T09:52:38Z</time>
      </trkpt>
      <trkpt lat="47.3012" lon="4.95748">
        <ele>437.964</ele>
        <time>2012-08-10T09:52:49Z</time>
      </trkpt>
      <trkpt lat="47.3012" lon="4.95748">
        <ele>437.964</ele>
        <time>2012-08-10T09:53:00Z</time>
      </trkpt>
      <trkpt lat="47.3012" lon="4.95748">
        <ele>437.964</ele>
        <time>2012-08-10T09:53:11Z</time>
      </trkpt>
      <trkpt lat="47.3012" lon="4.95748">
        <ele>437.964</ele>
        <time>2012-08-10T09:53:22Z</time>
      </trkpt>
      <trkpt lat="47.3012" lon="4.95748">
        <ele>437.964</ele>
        <time>2012-08-10T09:53:33Z</time>
      </trkpt>
      <trkpt lat="47.3012" lon="4.95748">
        <ele>437.964</ele>
        <time>2012-08-10T09:53:44Z</time>
      </trkpt>
      <trkpt lat="47.3012" lon="4.95748">
        <ele>437.964</ele>
        <time>2012-08-10T09:53:55Z</time>
      </trkpt>
      <trkpt lat="47.3012" lon="4.95748">
        <ele>437.964</ele>
        <time>2012-08-10T09:54:06Z</time>
      </trkpt>
      <trkpt lat="47.3012" lon="4.95748">
        <ele>437.964</ele>
        <time>2012-08-10T09:54:17Z</time>
      </trkpt>
      <trkpt lat="47.3012" lon="4.95748">
        <ele>437.964</ele>
        <time>2012-08-10T09:54:28Z</time>
      </trkpt>
      <trkpt lat="47.3012" lon="4.95748">
        <ele>437.964</ele>
        <time>2012-08-10T09:54:39Z</time>
      </trkpt>
      <trkpt lat="47.3012" lon="4.95748">
        <ele>437.964</ele>
        <time>2012-08-10T09:54:50Z</time>
      </trkpt>
      <trkpt lat="47.3012" lon="4.95748">
        <ele>437.964</ele>
        <time>2012-08-10T09:55:01Z</time>
      </trkpt>
      <trkpt lat="47.3012" lon="4.95748">
        <ele>437.939</ele>
        <time>2012-08-10T09:55:12Z</time>
      </trkpt>
      <trkpt lat="47.3012" lon="4.95748">
        <ele>437.939</ele>
        <time>2012-08-10T09:55:23Z</time>
      </trkpt>
      <trkpt lat="47.3012" lon="4.95748">
        <ele>437.939</ele>
        <time>2012-08-10T09:55:34Z</time>
      </trkpt>
      <trkpt lat="47.3012" lon="4.95748">
        <ele>437.939</ele>
        <time>2012-08-10T09:55:45Z</time>
      </trkpt>
      <trkpt lat="47.3012" lon="4.95748">
        <ele>437.939</ele>
        <time>2012-08-10T09:55:56Z</time>
      </trkpt>
      <trkpt lat="47.3012" lon="4.95748">
        <ele>437.939</ele>
        <time>2012-08-10T09:56:07Z</time>
      </trkpt>
      <trkpt lat="47.3012" lon="4.95748">
        <ele>437.939</ele>
        <time>2012-08-10T09:56:18Z</time>
      </trkpt>
      <trkpt lat="47.3012" lon="4.95748">
        <ele>437.939</ele>
        <time>2012-08-10T09:56:29Z</time>
      </trkpt>
      <trkpt lat="47.3012" lon="4.95748">
        <ele>437.939</ele>
        <time>2012-08-10T09:56:40Z</time>
      </trkpt>
      <trkpt lat="47.3012" lon="4.95748">
        <ele>437.939</ele>
        <time>2012-08-10T09:56:51Z</time>
      </trkpt>
      <trkpt lat="47.3012" lon="4.95748">
        <ele>437.939</ele>
        <time>2012-08-10T09:57:02Z</time>
      </trkpt>
      <trkpt lat="47.3012" lon="4.95748">
        <ele>437.939</ele>
        <time>2012-08-10T09:57:13Z</time>
      </trkpt>
      <trkpt lat="47.3012" lon="4.95748">
        <ele>437.939</ele>
        <time>2012-08-10T09:57:24Z</time>
      </trkpt>
      <trkpt lat="47.3012" lon="4.95748">
        <ele>437.939</ele>
        <time>2012-08-10T09:57:35Z</time>
      </trkpt>
      <trkpt lat="47.3012" lon="4.95748">
        <ele>437.939</ele>
        <time>2012-08-10T09:57:46Z</time>
      </trkpt>
      <trkpt lat="47.3012" lon="4.95748">
        <ele>437.939</ele>
        <time>2012-08-10T09:57:57Z</time>
      </trkpt>
      <trkpt lat="47.3012" lon="4.95748">
        <ele>438.015</ele>
        <time>2012-08-10T09:58:08Z</time>
      </trkpt>
      <trkpt lat="47.3012" lon="4.95748">
        <ele>438.015</ele>
        <time>2012-08-10T09:58:19Z</time>
      </trkpt>
      <trkpt lat="47.3012" lon="4.95748">
        <ele>438.015</ele>
        <time>2012-08-10T09:58:30Z</time>
      </trkpt>
      <trkpt lat="47.3012" lon="4.95748">
        <ele>438.015</ele>
        <time>2012-08-10T09:58:41Z</time>
      </trkpt>
      <trkpt lat="47.3012" lon="4.95748">
        <ele>438.015</ele>
        <time>2012-08-10T09:58:52Z</time>
      </trkpt>
      <trkpt lat="47.3012" lon="4.9575">
        <ele>436.942</ele>
        <time>2012-08-10T09:59:03Z</time>
      </trkpt>
      <trkpt lat="47.3012" lon="4.9575">
        <ele>437.269</ele>
        <time>2012-08-10T09:59:14Z</time>
      </trkpt>
      <trkpt lat="47.3012" lon="4.9575">
        <ele>437.269</ele>
        <time>2012-08-10T09:59:25Z</time>
      </trkpt>
      <trkpt lat="47.3012" lon="4.9575">
        <ele>437.269</ele>
        <time>2012-08-10T09:59:36Z</time>
      </trkpt>
      <trkpt lat="47.3012" lon="4.9575">
        <ele>437.269</ele>
        <time>2012-08-10T09:59:47Z</time>
      </trkpt>
      <trkpt lat="47.3012" lon="4.9575">
        <ele>437.269</ele>
        <time>2012-08-10T09:59:58Z</time>
      </trkpt>
      <trkpt lat="47.3012" lon="4.9575">
        <ele>436.994</ele>
        <time>2012-08-10T10:00:09Z</time>
      </trkpt>
      <trkpt lat="47.3012" lon="4.9575">
        <ele>436.645</ele>
        <time>2012-08-10T10:00:20Z</time>
      </trkpt>
      <trkpt lat="47.30117" lon="4.95757">
        <ele>438.907</ele>
        <time>2012-08-10T10:00:31Z</time>
      </trkpt>
      <trkpt lat="47.30113" lon="4.95775">
        <ele>441.103</ele>
        <time>2012-08-10T10:00:42Z</time>
      </trkpt>
      <trkpt lat="47.3011" lon="4.95793">
        <ele>440.734</ele>
        <time>2012-08-10T10:00:53Z</time>
      </trkpt>
      <trkpt lat="47.30107" lon="4.95812">
        <ele>439.198</ele>
        <time>2012-08-10T10:01:04Z</time>
      </trkpt>
      <trkpt lat="47.30102" lon="4.95828">
        <ele>437.842</ele>
        <time>2012-08-10T10:01:15Z</time>
      </trkpt>
      <trkpt lat="47.30095" lon="4.95845">
        <ele>437.272</ele>
        <time>2012-08-10T10:01:26Z</time>
      </trkpt>
      <trkpt lat="47.30088" lon="4.9586">
        <ele>436.497</ele>
        <time>2012-08-10T10:01:37Z</time>
      </trkpt>
      <trkpt lat="47.30077" lon="4.95877">
        <ele>435.552</ele>
        <time>2012-08-10T10:01:48Z</time>
      </trkpt>
      <trkpt lat="47.30068" lon="4.95888">
        <ele>435.651</ele>
        <time>2012-08-10T10:01:59Z</time>
      </trkpt>
      <trkpt lat="47.30057" lon="4.95905">
        <ele>434.45</ele>
        <time>2012-08-10T10:02:10Z</time>
      </trkpt>
      <trkpt lat="47.30048" lon="4.95922">
        <ele>434.199</ele>
        <time>2012-08-10T10:02:21Z</time>
      </trkpt>
      <trkpt lat="47.30045" lon="4.95937">
        <ele>432.251</ele>
        <time>2012-08-10T10:02:32Z</time>
      </trkpt>
      <trkpt lat="47.30038" lon="4.95955">
        <ele>431.55</ele>
        <time>2012-08-10T10:02:43Z</time>
      </trkpt>
      <trkpt lat="47.30033" lon="4.95975">
        <ele>430.098</ele>
        <time>2012-08-10T10:02:54Z</time>
      </trkpt>
      <trkpt lat="47.30028" lon="4.95997">
        <ele>427.986</ele>
        <time>2012-08-10T10:03:05Z</time>
      </trkpt>
      <trkpt lat="47.30022" lon="4.96018">
        <ele>426.896</ele>
        <time>2012-08-10T10:03:16Z</time>
      </trkpt>
      <trkpt lat="47.30015" lon="4.9604">
        <ele>425.589</ele>
        <time>2012-08-10T10:03:27Z</time>
      </trkpt>
      <trkpt lat="47.30012" lon="4.96063">
        <ele>425.132</ele>
        <time>2012-08-10T10:03:38Z</time>
      </trkpt>
      <trkpt lat="47.30012" lon="4.96088">
        <ele>423.942</ele>
        <time>2012-08-10T10:03:49Z</time>
      </trkpt>
      <trkpt lat="47.3001" lon="4.9611">
        <ele>423.168</ele>
        <time>2012-08-10T10:04:00Z</time>
      </trkpt>
      <trkpt lat="47.3001" lon="4.96132">
        <ele>421.633</ele>
        <time>2012-08-10T10:04:11Z</time>
      </trkpt>
      <trkpt lat="47.30007" lon="4.96155">
        <ele>419.551</ele>
        <time>2012-08-10T10:04:22Z</time>
      </trkpt>
      <trkpt lat="47.30005" lon="4.96178">
        <ele>416.326</ele>
        <time>2012-08-10T10:04:33Z</time>
      </trkpt>
      <trkpt lat="47.3" lon="4.96202">
        <ele>415.009</ele>
        <time>2012-08-10T10:04:44Z</time>
      </trkpt>
      <trkpt lat="47.29998" lon="4.96218">
        <ele>413.389</ele>
        <time>2012-08-10T10:04:55Z</time>
      </trkpt>
      <trkpt lat="47.29995" lon="4.9624">
        <ele>413.005</ele>
        <time>2012-08-10T10:05:06Z</time>
      </trkpt>
      <trkpt lat="47.2999" lon="4.96258">
        <ele>413.78</ele>
        <time>2012-08-10T10:05:17Z</time>
      </trkpt>
      <trkpt lat="47.29987" lon="4.96277">
        <ele>415.484</ele>
        <time>2012-08-10T10:05:28Z</time>
      </trkpt>
      <trkpt lat="47.29987" lon="4.96297">
        <ele>416.519</ele>
        <time>2012-08-10T10:05:39Z</time>
      </trkpt>
      <trkpt lat="47.29983" lon="4.96313">
        <ele>417.466</ele>
        <time>2012-08-10T10:05:50Z</time>
      </trkpt>
      <trkpt lat="47.29985" lon="4.96333">
        <ele>417.616</ele>
        <time>2012-08-10T10:06:01Z</time>
      </trkpt>
      <trkpt lat="47.29983" lon="4.9635">
        <ele>420.15</ele>
        <time>2012-08-10T10:06:12Z</time>
      </trkpt>
      <trkpt lat="47.29985" lon="4.96368">
        <ele>423.403</ele>
        <time>2012-08-10T10:06:23Z</time>
      </trkpt>
      <trkpt lat="47.29985" lon="4.96387">
        <ele>425.511</ele>
        <time>2012-08-10T10:06:34Z</time>
      </trkpt>
      <trkpt lat="47.29985" lon="4.9641">
        <ele>426.883</ele>
        <time>2012-08-10T10:06:45Z</time>
      </trkpt>
      <trkpt lat="47.29985" lon="4.96433">
        <ele>427.397</ele>
        <time>2012-08-10T10:06:56Z</time>
      </trkpt>
      <trkpt lat="47.29985" lon="4.96452">
        <ele>429.597</ele>
        <time>2012-08-10T10:07:07Z</time>
      </trkpt>
      <trkpt lat="47.29985" lon="4.96478">
        <ele>427.211</ele>
        <time>2012-08-10T10:07:18Z</time>
      </trkpt>
      <trkpt lat="47.2998" lon="4.96502">
        <ele>426.398</ele>
        <time>2012-08-10T10:07:29Z</time>
      </trkpt>
      <trkpt lat="47.2998" lon="4.96527">
        <ele>425.088</ele>
        <time>2012-08-10T10:07:40Z</time>
      </trkpt>
      <trkpt lat="47.29982" lon="4.96552">
        <ele>425.864</ele>
        <time>2012-08-10T10:07:51Z</time>
      </trkpt>
      <trkpt lat="47.29978" lon="4.96577">
        <ele>426.814</ele>
        <time>2012-08-10T10:08:02Z</time>
      </trkpt>
      <trkpt lat="47.29978" lon="4.966">
        <ele>427.176</ele>
        <time>2012-08-10T10:08:13Z</time>
      </trkpt>
      <trkpt lat="47.29973" lon="4.96628">
        <ele>424.303</ele>
        <time>2012-08-10T10:08:24Z</time>
      </trkpt>
      <trkpt lat="47.29967" lon="4.96653">
        <ele>421.328</ele>
        <time>2012-08-10T10:08:35Z</time>
      </trkpt>
      <trkpt lat="47.29957" lon="4.96677">
        <ele>418.793</ele>
        <time>2012-08-10T10:08:46Z</time>
      </trkpt>
      <trkpt lat="47.2995" lon="4.967">
        <ele>417</ele>
        <time>2012-08-10T10:08:57Z</time>
      </trkpt>
      <trkpt lat="47.29937" lon="4.96722">
        <ele>415.727</ele>
        <time>2012-08-10T10:09:08Z</time>
      </trkpt>
      <trkpt lat="47.29923" lon="4.96743">
        <ele>412.57</ele>
        <time>2012-08-10T10:09:19Z</time>
      </trkpt>
      <trkpt lat="47.2991" lon="4.96765">
        <ele>408.2</ele>
        <time>2012-08-10T10:09:30Z</time>
      </trkpt>
      <trkpt lat="47.299" lon="4.96787">
        <ele>403.342</ele>
        <time>2012-08-10T10:09:41Z</time>
      </trkpt>
      <trkpt lat="47.29892" lon="4.96808">
        <ele>401.62</ele>
        <time>2012-08-10T10:09:52Z</time>
      </trkpt>
      <trkpt lat="47.29887" lon="4.96828">
        <ele>400.716</ele>
        <time>2012-08-10T10:10:03Z</time>
      </trkpt>
      <trkpt lat="47.2988" lon="4.9685">
        <ele>400.804</ele>
        <time>2012-08-10T10:10:14Z</time>
      </trkpt>
      <trkpt lat="47.29872" lon="4.96872">
        <ele>399.873</ele>
        <time>2012-08-10T10:10:25Z</time>
      </trkpt>
      <trkpt lat="47.29863" lon="4.9689">
        <ele>398.202</ele>
        <time>2012-08-10T10:10:36Z</time>
      </trkpt>
      <trkpt lat="47.29857" lon="4.96913">
        <ele>395.971</ele>
        <time>2012-08-10T10:10:47Z</time>
      </trkpt>
      <trkpt lat="47.29853" lon="4.96935">
        <ele>394.703</ele>
        <time>2012-08-10T10:10:58Z</time>
      </trkpt>
      <trkpt lat="47.29848" lon="4.96958">
        <ele>393.657</ele>
        <time>2012-08-10T10:11:09Z</time>
      </trkpt>
      <trkpt lat="47.29843" lon="4.9698">
        <ele>393.455</ele>
        <time>2012-08-10T10:11:20Z</time>
      </trkpt>
      <trkpt lat="47.2984" lon="4.97003">
        <ele>392.258</ele>
        <time>2012-08-10T10:11:31Z</time>
      </trkpt>
      <trkpt lat="47.29837" lon="4.97028">
        <ele>392.146</ele>
        <time>2012-08-10T10:11:42Z</time>
      </trkpt>
      <trkpt lat="47.29833" lon="4.9705">
        <ele>390.986</ele>
        <time>2012-08-10T10:11:53Z</time>
      </trkpt>
      <trkpt lat="47.29833" lon="4.97075">
        <ele>390.098</ele>
        <time>2012-08-10T10:12:04Z</time>
      </trkpt>
      <trkpt lat="47.29835" lon="4.971">
        <ele>390.904</ele>
        <time>2012-08-10T10:12:15Z</time>
      </trkpt>
      <trkpt lat="47.29837" lon="4.97123">
        <ele>392.495</ele>
        <time>2012-08-10T10:12:26Z</time>
      </trkpt>
      <trkpt lat="47.29838" lon="4.97143">
        <ele>394.001</ele>
        <time>2012-08-10T10:12:37Z</time>
      </trkpt>
      <trkpt lat="47.2984" lon="4.97167">
        <ele>395.279</ele>
        <time>2012-08-10T10:12:48Z</time>
      </trkpt>
      <trkpt lat="47.2984" lon="4.9719">
        <ele>395.702</ele>
        <time>2012-08-10T10:12:59Z</time>
      </trkpt>
      <trkpt lat="47.29842" lon="4.97208">
        <ele>396.447</ele>
        <time>2012-08-10T10:13:10Z</time>
      </trkpt>
      <trkpt lat="47.29845" lon="4.97233">
        <ele>397.873</ele>
        <time>2012-08-10T10:13:21Z</time>
      </trkpt>
      <trkpt lat="47.29847" lon="4.9725">
        <ele>399.144</ele>
        <time>2012-08-10T10:13:32Z</time>
      </trkpt>
      <trkpt lat="47.29847" lon="4.97252">
        <ele>399.153</ele>
        <time>2012-08-10T10:13:43Z</time>
      </trkpt>
      <trkpt lat="47.29847" lon="4.97252">
        <ele>399.153</ele>
        <time>2012-08-10T10:13:54Z</time>
      </trkpt>
      <trkpt lat="47.29847" lon="4.97252">
        <ele>399.139</ele>
        <time>2012-08-10T10:14:05Z</time>
      </trkpt>
      <trkpt lat="47.29847" lon="4.97252">
        <ele>399.139</ele>
        <time>2012-08-10T10:14:16Z</time>
      </trkpt>
      <trkpt lat="47.29847" lon="4.9726">
        <ele>399.516</ele>
        <time>2012-08-10T10:14:27Z</time>
      </trkpt>
      <trkpt lat="47.29843" lon="4.9728">
        <ele>399.876</ele>
        <time>2012-08-10T10:14:38Z</time>
      </trkpt>
      <trkpt lat="47.2984" lon="4.97303">
        <ele>398.009</ele>
        <time>2012-08-10T10:14:49Z</time>
      </trkpt>
      <trkpt lat="47.29837" lon="4.97327">
        <ele>397.434</ele>
        <time>2012-08-10T10:15:00Z</time>
      </trkpt>
      <trkpt lat="47.29833" lon="4.97352">
        <ele>396.001</ele>
        <time>2012-08-10T10:15:11Z</time>
      </trkpt>
      <trkpt lat="47.29828" lon="4.97373">
        <ele>395.262</ele>
        <time>2012-08-10T10:15:22Z</time>
      </trkpt>
      <trkpt lat="47.29825" lon="4.97398">
        <ele>394.397</ele>
        <time>2012-08-10T10:15:33Z</time>
      </trkpt>
      <trkpt lat="47.2982" lon="4.97422">
        <ele>394.153</ele>
        <time>2012-08-10T10:15:44Z</time>
      </trkpt>
      <trkpt lat="47.29813" lon="4.97445">
        <ele>394.752</ele>
        <time>2012-08-10T10:15:55Z</time>
      </trkpt>
      <trkpt lat="47.2981" lon="4.97467">
        <ele>392.154</ele>
        <time>2012-08-10T10:16:06Z</time>
      </trkpt>
      <trkpt lat="47.29807" lon="4.97488">
        <ele>393.578</ele>
        <time>2012-08-10T10:16:17Z</time>
      </trkpt>
      <trkpt lat="47.29802" lon="4.97513">
        <ele>392.87</ele>
        <time>2012-08-10T10:16:28Z</time>
      </trkpt>
      <trkpt lat="47.29797" lon="4.97535">
        <ele>392.092</ele>
        <time>2012-08-10T10:16:39Z</time>
      </trkpt>
      <trkpt lat="47.29792" lon="4.97558">
        <ele>392.489</ele>
        <time>2012-08-10T10:16:50Z</time>
      </trkpt>
      <trkpt lat="47.29788" lon="4.97582">
        <ele>391.396</ele>
        <time>2012-08-10T10:17:01Z</time>
      </trkpt>
      <trkpt lat="47.29783" lon="4.97602">
        <ele>392.412</ele>
        <time>2012-08-10T10:17:12Z</time>
      </trkpt>
      <trkpt lat="47.2978" lon="4.97627">
        <ele>390.379</ele>
        <time>2012-08-10T10:17:23Z</time>
      </trkpt>
      <trkpt lat="47.29775" lon="4.97653">
        <ele>389.7</ele>
        <time>2012-08-10T10:17:34Z</time>
      </trkpt>
      <trkpt lat="47.2977" lon="4.97677">
        <ele>390.506</ele>
        <time>2012-08-10T10:17:45Z</time>
      </trkpt>
      <trkpt lat="47.29765" lon="4.97698">
        <ele>391.207</ele>
        <time>2012-08-10T10:17:56Z</time>
      </trkpt>
      <trkpt lat="47.29762" lon="4.9772">
        <ele>392.877</ele>
        <time>2012-08-10T10:18:07Z</time>
      </trkpt>
      <trkpt lat="47.29757" lon="4.97743">
        <ele>393.473</ele>
        <time>2012-08-10T10:18:18Z</time>
      </trkpt>
      <trkpt lat="47.29752" lon="4.97765">
        <ele>392.786</ele>
        <time>2012-08-10T10:18:29Z</time>
      </trkpt>
      <trkpt lat="47.29747" lon="4.97787">
        <ele>392.532</ele>
        <time>2012-08-10T10:18:40Z</time>
      </trkpt>
      <trkpt lat="47.29743" lon="4.97808">
        <ele>392.828</ele>
        <time>2012-08-10T10:18:51Z</time>
      </trkpt>
      <trkpt lat="47.29738" lon="4.9783">
        <ele>393.705</ele>
        <time>2012-08-10T10:19:02Z</time>
      </trkpt>
      <trkpt lat="47.29735" lon="4.9785">
        <ele>393.964</ele>
        <time>2012-08-10T10:19:13Z</time>
      </trkpt>
      <trkpt lat="47.2973" lon="4.97872">
        <ele>395.458</ele>
        <time>2012-08-10T10:19:24Z</time>
      </trkpt>
      <trkpt lat="47.29727" lon="4.97893">
        <ele>395.672</ele>
        <time>2012-08-10T10:19:35Z</time>
      </trkpt>
      <trkpt lat="47.29722" lon="4.97913">
        <ele>396.409</ele>
        <time>2012-08-10T10:19:46Z</time>
      </trkpt>
      <trkpt lat="47.2972" lon="4.97935">
        <ele>396.829</ele>
        <time>2012-08-10T10:19:57Z</time>
      </trkpt>
      <trkpt lat="47.29713" lon="4.97955">
        <ele>397.448</ele>
        <time>2012-08-10T10:20:08Z</time>
      </trkpt>
      <trkpt lat="47.2971" lon="4.97977">
        <ele>399.374</ele>
        <time>2012-08-10T10:20:19Z</time>
      </trkpt>
      <trkpt lat="47.29703" lon="4.98002">
        <ele>398.328</ele>
        <time>2012-08-10T10:20:30Z</time>
      </trkpt>
      <trkpt lat="47.297" lon="4.98023">
        <ele>399.269</ele>
        <time>2012-08-10T10:20:41Z</time>
      </trkpt>
      <trkpt lat="47.29697" lon="4.98042">
        <ele>398.471</ele>
        <time>2012-08-10T10:20:52Z</time>
      </trkpt>
      <trkpt lat="47.29693" lon="4.98063">
        <ele>398.184</ele>
        <time>2012-08-10T10:21:03Z</time>
      </trkpt>
      <trkpt lat="47.29688" lon="4.98087">
        <ele>396.586</ele>
        <time>2012-08-10T10:21:14Z</time>
      </trkpt>
      <trkpt lat="47.29683" lon="4.9811">
        <ele>395.723</ele>
        <time>2012-08-10T10:21:25Z</time>
      </trkpt>
      <trkpt lat="47.29678" lon="4.9813">
        <ele>395.867</ele>
        <time>2012-08-10T10:21:36Z</time>
      </trkpt>
      <trkpt lat="47.29675" lon="4.98153">
        <ele>395.318</ele>
        <time>2012-08-10T10:21:47Z</time>
      </trkpt>
      <trkpt lat="47.29672" lon="4.98175">
        <ele>394.732</ele>
        <time>2012-08-10T10:21:58Z</time>
      </trkpt>
      <trkpt lat="47.29668" lon="4.98197">
        <ele>394.779</ele>
        <time>2012-08-10T10:22:09Z</time>
      </trkpt>
      <trkpt lat="47.29663" lon="4.98218">
        <ele>393.697</ele>
        <time>2012-08-10T10:22:20Z</time>
      </trkpt>
      <trkpt lat="47.29662" lon="4.98232">
        <ele>393.891</ele>
        <time>2012-08-10T10:22:31Z</time>
      </trkpt>
      <trkpt lat="47.2966" lon="4.98245">
        <ele>393.601</ele>
        <time>2012-08-10T10:22:42Z</time>
      </trkpt>
      <trkpt lat="47.29655" lon="4.98265">
        <ele>393.346</ele>
        <time>2012-08-10T10:22:53Z</time>
      </trkpt>
      <trkpt lat="47.2965" lon="4.98287">
        <ele>393.283</ele>
        <time>2012-08-10T10:23:04Z</time>
      </trkpt>
      <trkpt lat="47.29647" lon="4.98305">
        <ele>394.448</ele>
        <time>2012-08-10T10:23:15Z</time>
      </trkpt>
      <trkpt lat="47.29642" lon="4.98327">
        <ele>394.448</ele>
        <time>2012-08-10T10:23:26Z</time>
      </trkpt>
    </trkseg>
  </trk>
</gpx>